Observation data for Junction on 03/11/2018      Previous  Date  Next       Current Mesonet Observations  Soil Data  Daily Summary Page  Observations in Plain Language
KJU1 110600Z 18006KT 17/04 A2981 RMK A01 T01680035  RH  041%=      5-min Rain = 0
KJU1 110601Z 18006KT 17/03 A2981 RMK A01 T01690034  RH  041%=      5-min Rain = 0
KJU1 110602Z 18006KT 17/04 A2981 RMK A01 T01690035  RH  041%=      5-min Rain = 0
KJU1 110603Z 18006KT 17/04 A2981 RMK A01 T01690036  RH  041%=      5-min Rain = 0
KJU1 110604Z 19006KT 17/04 A2981 RMK A01 T01690035  RH  041%=      5-min Rain = 0
KJU1 110605Z 18006KT 17/04 A2982 RMK A01 T01690035  RH  041%=      5-min Rain = 0
KJU1 110606Z 18006KT 17/04 A2981 RMK A01 T01690035  RH  041%=      5-min Rain = 0
KJU1 110607Z 18006KT 17/04 A2981 RMK A01 T01690035  RH  041%=      5-min Rain = 0
KJU1 110608Z 18006KT 17/04 A2981 RMK A01 T01690035  RH  041%=      5-min Rain = 0
KJU1 110609Z 18006KT 17/04 A2981 RMK A01 T01690035  RH  041%=      5-min Rain = 0
KJU1 110610Z 18006KT 17/04 A2981 RMK A01 T01690035  RH  041%=      5-min Rain = 0
KJU1 110611Z 19007KT 17/04 A2982 RMK A01 T01690035  RH  041%=      5-min Rain = 0
KJU1 110612Z 19007KT 17/04 A2982 RMK A01 T01690036  RH  041%=      5-min Rain = 0
KJU1 110613Z 19007KT 17/04 A2982 RMK A01 T01690036  RH  041%=      5-min Rain = 0
KJU1 110614Z 19006KT 17/04 A2982 RMK A01 T01690036  RH  041%=      5-min Rain = 0
KJU1 110615Z 19007KT 17/04 A2982 RMK A01 T01680037  RH  042%=      5-min Rain = 0
KJU1 110616Z 19007KT 17/04 A2982 RMK A01 T01680037  RH  042%=      5-min Rain = 0
KJU1 110617Z 19007KT 17/04 A2982 RMK A01 T01680037  RH  042%=      5-min Rain = 0
KJU1 110618Z 19006KT 17/04 A2982 RMK A01 T01680037  RH  042%=      5-min Rain = 0
KJU1 110619Z 19006KT 17/04 A2982 RMK A01 T01690036  RH  041%=      5-min Rain = 0
KJU1 110620Z 18006KT 17/04 A2982 RMK A01 T01690036  RH  041%=      5-min Rain = 0
KJU1 110621Z 18006KT 17/04 A2981 RMK A01 T01690036  RH  041%=      5-min Rain = 0
KJU1 110622Z 18006KT 17/04 A2981 RMK A01 T01690036  RH  041%=      5-min Rain = 0
KJU1 110623Z 18006KT 17/04 A2981 RMK A01 T01690036  RH  041%=      5-min Rain = 0
KJU1 110624Z 18007KT 17/04 A2981 RMK A01 T01690037  RH  041%=      5-min Rain = 0
KJU1 110625Z 18007KT 17/04 A2981 RMK A01 T01690036  RH  041%=      5-min Rain = 0
KJU1 110626Z 18007KT 17/04 A2981 RMK A01 T01680037  RH  041%=      5-min Rain = 0
KJU1 110627Z 18006KT 17/04 A2981 RMK A01 T01680037  RH  041%=      5-min Rain = 0
KJU1 110628Z 18006KT 17/04 A2981 RMK A01 T01680037  RH  042%=      5-min Rain = 0
KJU1 110629Z 18006KT 17/04 A2982 RMK A01 T01680038  RH  042%=      5-min Rain = 0
KJU1 110630Z 18006KT 17/04 A2982 RMK A01 T01670037  RH  042%=      5-min Rain = 0
KJU1 110631Z 19006KT 17/04 A2982 RMK A01 T01670038  RH  042%=      5-min Rain = 0
KJU1 110632Z 19006KT 17/04 A2982 RMK A01 T01670038  RH  042%=      5-min Rain = 0
KJU1 110633Z 19004KT 17/04 A2982 RMK A01 T01670038  RH  042%=      5-min Rain = 0
KJU1 110634Z 19005KT 17/04 A2982 RMK A01 T01670038  RH  042%=      5-min Rain = 0
KJU1 110635Z 19005KT 17/04 A2982 RMK A01 T01670038  RH  042%=      5-min Rain = 0
KJU1 110636Z 19005KT 17/04 A2982 RMK A01 T01670038  RH  042%=      5-min Rain = 0
KJU1 110637Z 19006KT 17/04 A2982 RMK A01 T01670038  RH  042%=      5-min Rain = 0
KJU1 110638Z 19005KT 17/04 A2982 RMK A01 T01670037  RH  042%=      5-min Rain = 0
KJU1 110639Z 20005KT 17/04 A2982 RMK A01 T01680037  RH  042%=      5-min Rain = 0
KJU1 110640Z 19005KT 17/04 A2982 RMK A01 T01680036  RH  041%=      5-min Rain = 0
KJU1 110641Z 18005KT 17/04 A2982 RMK A01 T01690037  RH  041%=      5-min Rain = 0
KJU1 110642Z 18006KT 17/04 A2982 RMK A01 T01690037  RH  041%=      5-min Rain = 0
KJU1 110643Z 18005KT 17/04 A2982 RMK A01 T01690036  RH  041%=      5-min Rain = 0
KJU1 110644Z 17005KT 17/04 A2982 RMK A01 T01700035  RH  041%=      5-min Rain = 0
KJU1 110645Z 17006KT 17/04 A2982 RMK A01 T01710036  RH  041%=      5-min Rain = 0
KJU1 110646Z 17006KT 17/04 A2982 RMK A01 T01710035  RH  040%=      5-min Rain = 0
KJU1 110647Z 18006KT 17/04 A2982 RMK A01 T01710035  RH  040%=      5-min Rain = 0
KJU1 110648Z 18006KT 17/04 A2982 RMK A01 T01720035  RH  040%=      5-min Rain = 0
KJU1 110649Z 18006KT 17/04 A2982 RMK A01 T01710035  RH  040%=      5-min Rain = 0
KJU1 110650Z 18006KT 17/04 A2982 RMK A01 T01720035  RH  040%=      5-min Rain = 0
KJU1 110651Z 18007KT 17/03 A2982 RMK A01 T01720034  RH  040%=      5-min Rain = 0
KJU1 110652Z 17006KT 17/03 A2982 RMK A01 T01730033  RH  039%=      5-min Rain = 0
KJU1 110653Z 17006KT 18/03 A2982 RMK A01 T01750033  RH  039%=      5-min Rain = 0
KJU1 110654Z 16006KT 18/03 A2982 RMK A01 T01750032  RH  039%=      5-min Rain = 0
KJU1 110655Z 16005KT 18/03 A2982 RMK A01 T01750033  RH  039%=      5-min Rain = 0
KJU1 110656Z 16006KT 18/03 A2982 RMK A01 T01750033  RH  039%=      5-min Rain = 0
KJU1 110657Z 16006KT 18/03 A2982 RMK A01 T01750032  RH  038%=      5-min Rain = 0
KJU1 110658Z 16005KT 18/03 A2982 RMK A01 T01750032  RH  038%=      5-min Rain = 0
KJU1 110659Z 16005KT 18/03 A2982 RMK A01 T01750032  RH  038%=      5-min Rain = 0
KJU1 110700Z 17005KT 18/03 A2982 RMK A01 T01750032  RH  038%=      5-min Rain = 0
KJU1 110701Z 17006KT 18/03 A2982 RMK A01 T01750031  RH  038%=      5-min Rain = 0
KJU1 110702Z 16006KT 18/03 A2982 RMK A01 T01760030  RH  038%=      5-min Rain = 0
KJU1 110703Z 16006KT 18/03 A2982 RMK A01 T01770030  RH  037%=      5-min Rain = 0
KJU1 110704Z 16006KT 18/03 A2982 RMK A01 T01770029  RH  037%=      5-min Rain = 0
KJU1 110705Z 17006KT 18/03 A2982 RMK A01 T01780029  RH  037%=      5-min Rain = 0
KJU1 110706Z 17006KT 18/03 A2982 RMK A01 T01780028  RH  037%=      5-min Rain = 0
KJU1 110707Z 17006KT 18/03 A2982 RMK A01 T01790028  RH  037%=      5-min Rain = 0
KJU1 110708Z 18005KT 18/03 A2982 RMK A01 T01790029  RH  037%=      5-min Rain = 0
KJU1 110709Z 18006KT 18/03 A2982 RMK A01 T01790029  RH  037%=      5-min Rain = 0
KJU1 110710Z 18005KT 18/03 A2982 RMK A01 T01780029  RH  037%=      5-min Rain = 0
KJU1 110711Z 18006KT 18/03 A2982 RMK A01 T01780029  RH  037%=      5-min Rain = 0
KJU1 110712Z 18006KT 18/03 A2982 RMK A01 T01790029  RH  037%=      5-min Rain = 0
KJU1 110713Z 17005KT 18/03 A2982 RMK A01 T01790028  RH  037%=      5-min Rain = 0
KJU1 110714Z 17005KT 18/03 A2982 RMK A01 T01790030  RH  037%=      5-min Rain = 0
KJU1 110715Z 18004KT 18/03 A2982 RMK A01 T01780031  RH  037%=      5-min Rain = 0
KJU1 110716Z 18004KT 18/03 A2983 RMK A01 T01770031  RH  038%=      5-min Rain = 0
KJU1 110717Z 19005KT 18/03 A2983 RMK A01 T01760031  RH  038%=      5-min Rain = 0
KJU1 110718Z 19004KT 18/03 A2983 RMK A01 T01770032  RH  038%=      5-min Rain = 0
KJU1 110719Z 19003KT 18/03 A2983 RMK A01 T01760033  RH  038%=      5-min Rain = 0
KJU1 110720Z 19002KT 18/03 A2983 RMK A01 T01760032  RH  038%=      5-min Rain = 0
KJU1 110721Z 18001KT 18/03 A2982 RMK A01 T01760032  RH  038%=      5-min Rain = 0
KJU1 110722Z 20003KT 18/03 A2982 RMK A01 T01750033  RH  038%=      5-min Rain = 0
KJU1 110723Z 19003KT 18/03 A2982 RMK A01 T01760032  RH  038%=      5-min Rain = 0
KJU1 110724Z 19003KT 18/03 A2982 RMK A01 T01760032  RH  038%=      5-min Rain = 0
KJU1 110725Z 17005KT 18/03 A2982 RMK A01 T01760032  RH  038%=      5-min Rain = 0
KJU1 110726Z 18005KT 18/03 A2982 RMK A01 T01760033  RH  038%=      5-min Rain = 0
KJU1 110727Z 17005KT 18/03 A2982 RMK A01 T01760033  RH  038%=      5-min Rain = 0
KJU1 110728Z 18005KT 18/03 A2982 RMK A01 T01760033  RH  038%=      5-min Rain = 0
KJU1 110729Z 18006KT 18/03 A2982 RMK A01 T01760032  RH  038%=      5-min Rain = 0
KJU1 110730Z 18006KT 18/03 A2983 RMK A01 T01760032  RH  038%=      5-min Rain = 0
KJU1 110731Z 19006KT 18/03 A2983 RMK A01 T01760032  RH  038%=      5-min Rain = 0
KJU1 110732Z 19005KT 18/03 A2983 RMK A01 T01760032  RH  038%=      5-min Rain = 0
KJU1 110733Z 19004KT 18/03 A2983 RMK A01 T01760033  RH  039%=      5-min Rain = 0
KJU1 110734Z 19004KT 18/03 A2983 RMK A01 T01760034  RH  039%=      5-min Rain = 0
KJU1 110735Z 19004KT 18/03 A2983 RMK A01 T01750034  RH  039%=      5-min Rain = 0
KJU1 110736Z 19004KT 18/03 A2983 RMK A01 T01750034  RH  039%=      5-min Rain = 0
KJU1 110737Z 18004KT 18/03 A2983 RMK A01 T01750034  RH  039%=      5-min Rain = 0
KJU1 110738Z 18006KT 17/03 A2983 RMK A01 T01740034  RH  039%=      5-min Rain = 0
KJU1 110739Z 18006KT 17/03 A2983 RMK A01 T01740034  RH  039%=      5-min Rain = 0
KJU1 110740Z 18005KT 17/03 A2983 RMK A01 T01740034  RH  039%=      5-min Rain = 0
KJU1 110741Z 18005KT 17/03 A2983 RMK A01 T01740034  RH  039%=      5-min Rain = 0
KJU1 110742Z 18004KT 17/03 A2983 RMK A01 T01740034  RH  039%=      5-min Rain = 0
KJU1 110743Z 17004KT 17/03 A2982 RMK A01 T01740034  RH  039%=      5-min Rain = 0
KJU1 110744Z 16004KT 17/03 A2982 RMK A01 T01740034  RH  039%=      5-min Rain = 0
KJU1 110745Z 15003KT 17/03 A2982 RMK A01 T01740034  RH  039%=      5-min Rain = 0
KJU1 110746Z 14002KT 17/03 A2982 RMK A01 T01740033  RH  039%=      5-min Rain = 0
KJU1 110747Z 14003KT 17/03 A2982 RMK A01 T01740033  RH  039%=      5-min Rain = 0
KJU1 110748Z 15003KT 17/03 A2982 RMK A01 T01740033  RH  039%=      5-min Rain = 0
KJU1 110749Z 14003KT 18/03 A2982 RMK A01 T01750033  RH  039%=      5-min Rain = 0
KJU1 110750Z 15004KT 18/03 A2982 RMK A01 T01750033  RH  039%=      5-min Rain = 0
KJU1 110751Z 16004KT 18/03 A2982 RMK A01 T01750033  RH  038%=      5-min Rain = 0
KJU1 110752Z 17005KT 18/03 A2982 RMK A01 T01760032  RH  038%=      5-min Rain = 0
KJU1 110753Z 17005KT 18/03 A2982 RMK A01 T01760032  RH  038%=      5-min Rain = 0
KJU1 110754Z 18005KT 18/03 A2982 RMK A01 T01760033  RH  038%=      5-min Rain = 0
KJU1 110755Z 18005KT 18/03 A2982 RMK A01 T01760033  RH  038%=      5-min Rain = 0
KJU1 110756Z 18006KT 18/03 A2982 RMK A01 T01770033  RH  038%=      5-min Rain = 0
KJU1 110757Z 17005KT 18/03 A2982 RMK A01 T01770032  RH  038%=      5-min Rain = 0
KJU1 110758Z 18005KT 18/03 A2982 RMK A01 T01770032  RH  038%=      5-min Rain = 0
KJU1 110759Z 18004KT 18/03 A2982 RMK A01 T01770033  RH  038%=      5-min Rain = 0
KJU1 110800Z 18004KT 18/03 A2982 RMK A01 T01770033  RH  038%=      5-min Rain = 0
KJU1 110801Z 19004KT 18/03 A2982 RMK A01 T01770033  RH  038%=      5-min Rain = 0
KJU1 110802Z 19004KT 18/03 A2982 RMK A01 T01770033  RH  038%=      5-min Rain = 0
KJU1 110803Z 19005KT 18/03 A2982 RMK A01 T01770032  RH  038%=      5-min Rain = 0
KJU1 110804Z 19005KT 18/03 A2982 RMK A01 T01760033  RH  038%=      5-min Rain = 0
KJU1 110805Z 20005KT 18/03 A2982 RMK A01 T01760033  RH  038%=      5-min Rain = 0
KJU1 110806Z 21003KT 18/03 A2982 RMK A01 T01760033  RH  039%=      5-min Rain = 0
KJU1 110807Z 21002KT 18/03 A2982 RMK A01 T01760032  RH  038%=      5-min Rain = 0
KJU1 110808Z 21001KT 18/03 A2981 RMK A01 T01760032  RH  038%=      5-min Rain = 0
KJU1 110809Z 18001KT 18/03 A2981 RMK A01 T01760030  RH  038%=      5-min Rain = 0
KJU1 110810Z 21000KT 18/03 A2981 RMK A01 T01760031  RH  038%=      5-min Rain = 0
KJU1 110811Z 16001KT 18/04 A2981 RMK A01 T01760036  RH  039%=      5-min Rain = 0
KJU1 110812Z 16001KT 18/03 A2981 RMK A01 T01760032  RH  038%=      5-min Rain = 0
KJU1 110813Z 16001KT 18/03 A2981 RMK A01 T01760033  RH  039%=      5-min Rain = 0
KJU1 110814Z 17000KT 18/04 A2982 RMK A01 T01760038  RH  040%=      5-min Rain = 0
KJU1 110815Z 16002KT 18/04 A2981 RMK A01 T01750035  RH  039%=      5-min Rain = 0
KJU1 110816Z 20002KT 17/04 A2982 RMK A01 T01740038  RH  040%=      5-min Rain = 0
KJU1 110817Z 18003KT 17/04 A2982 RMK A01 T01730038  RH  041%=      5-min Rain = 0
KJU1 110818Z 16005KT 17/04 A2981 RMK A01 T01720035  RH  040%=      5-min Rain = 0
KJU1 110819Z 15003KT 17/03 A2981 RMK A01 T01720034  RH  040%=      5-min Rain = 0
KJU1 110820Z 32002KT 17/04 A2982 RMK A01 T01720036  RH  040%=      5-min Rain = 0
KJU1 110821Z 28002KT 17/04 A2982 RMK A01 T01720035  RH  040%=      5-min Rain = 0
KJU1 110822Z 21003KT 17/04 A2982 RMK A01 T01730035  RH  040%=      5-min Rain = 0
KJU1 110823Z 20003KT 17/04 A2982 RMK A01 T01740036  RH  040%=      5-min Rain = 0
KJU1 110824Z 19004KT 17/04 A2982 RMK A01 T01740038  RH  040%=      5-min Rain = 0
KJU1 110825Z 19005KT 17/04 A2982 RMK A01 T01730038  RH  041%=      5-min Rain = 0
KJU1 110826Z 18005KT 17/04 A2982 RMK A01 T01720036  RH  040%=      5-min Rain = 0
KJU1 110827Z 18005KT 17/03 A2982 RMK A01 T01730034  RH  039%=      5-min Rain = 0
KJU1 110828Z 19005KT 17/03 A2982 RMK A01 T01740034  RH  039%=      5-min Rain = 0
KJU1 110829Z 19005KT 17/04 A2982 RMK A01 T01740035  RH  040%=      5-min Rain = 0
KJU1 110830Z 19007KT 17/04 A2982 RMK A01 T01740036  RH  040%=      5-min Rain = 0
KJU1 110831Z 19007KT 17/04 A2982 RMK A01 T01730035  RH  040%=      5-min Rain = 0
KJU1 110832Z 20007KT 17/03 A2982 RMK A01 T01730034  RH  040%=      5-min Rain = 0
KJU1 110833Z 19006KT 17/03 A2982 RMK A01 T01740034  RH  039%=      5-min Rain = 0
KJU1 110834Z 19006KT 17/03 A2982 RMK A01 T01740034  RH  039%=      5-min Rain = 0
KJU1 110835Z 19005KT 17/03 A2982 RMK A01 T01740034  RH  039%=      5-min Rain = 0
KJU1 110836Z 19005KT 17/04 A2982 RMK A01 T01740035  RH  040%=      5-min Rain = 0
KJU1 110837Z 19005KT 17/04 A2981 RMK A01 T01740035  RH  040%=      5-min Rain = 0
KJU1 110838Z 19005KT 17/04 A2981 RMK A01 T01740036  RH  040%=      5-min Rain = 0
KJU1 110839Z 18004KT 17/04 A2981 RMK A01 T01740036  RH  040%=      5-min Rain = 0
KJU1 110840Z 17004KT 17/04 A2981 RMK A01 T01740036  RH  040%=      5-min Rain = 0
KJU1 110841Z 17004KT 17/04 A2981 RMK A01 T01740036  RH  040%=      5-min Rain = 0
KJU1 110842Z 18004KT 17/04 A2981 RMK A01 T01730037  RH  040%=      5-min Rain = 0
KJU1 110843Z 18005KT 17/04 A2981 RMK A01 T01730037  RH  040%=      5-min Rain = 0
KJU1 110844Z 19006KT 17/04 A2981 RMK A01 T01730036  RH  040%=      5-min Rain = 0
KJU1 110845Z 19006KT 17/04 A2981 RMK A01 T01730036  RH  040%=      5-min Rain = 0
KJU1 110846Z 19006KT 17/04 A2981 RMK A01 T01730037  RH  040%=      5-min Rain = 0
KJU1 110847Z 19006KT 17/04 A2981 RMK A01 T01730038  RH  040%=      5-min Rain = 0
KJU1 110848Z 19005KT 17/04 A2981 RMK A01 T01730038  RH  040%=      5-min Rain = 0
KJU1 110849Z 20006KT 17/04 A2981 RMK A01 T01730038  RH  040%=      5-min Rain = 0
KJU1 110850Z 20006KT 17/04 A2981 RMK A01 T01730036  RH  040%=      5-min Rain = 0
KJU1 110851Z 19006KT 17/04 A2981 RMK A01 T01740036  RH  040%=      5-min Rain = 0
KJU1 110852Z 19005KT 18/04 A2981 RMK A01 T01750037  RH  040%=      5-min Rain = 0
KJU1 110853Z 19005KT 18/04 A2981 RMK A01 T01750038  RH  040%=      5-min Rain = 0
KJU1 110854Z 19004KT 18/04 A2981 RMK A01 T01750038  RH  040%=      5-min Rain = 0
KJU1 110855Z 18004KT 17/04 A2981 RMK A01 T01740037  RH  040%=      5-min Rain = 0
KJU1 110856Z 17003KT 17/04 A2981 RMK A01 T01740037  RH  040%=      5-min Rain = 0
KJU1 110857Z 17003KT 17/04 A2981 RMK A01 T01740038  RH  040%=      5-min Rain = 0
KJU1 110858Z 17003KT 17/04 A2981 RMK A01 T01740038  RH  040%=      5-min Rain = 0
KJU1 110859Z 17003KT 17/04 A2981 RMK A01 T01740037  RH  040%=      5-min Rain = 0
KJU1 110900Z 17003KT 17/04 A298 RMK A01 T01740037  RH  040%=      5-min Rain = 0
KJU1 110901Z 18003KT 17/04 A298 RMK A01 T01740037  RH  040%=      5-min Rain = 0
KJU1 110902Z 18004KT 17/04 A298 RMK A01 T01740036  RH  040%=      5-min Rain = 0
KJU1 110903Z 18004KT 17/03 A298 RMK A01 T01740034  RH  039%=      5-min Rain = 0
KJU1 110904Z 18005KT 18/03 A298 RMK A01 T01760034  RH  039%=      5-min Rain = 0
KJU1 110905Z 18004KT 18/04 A298 RMK A01 T01760035  RH  039%=      5-min Rain = 0
KJU1 110906Z 19005KT 18/04 A298 RMK A01 T01760037  RH  039%=      5-min Rain = 0
KJU1 110907Z 19005KT 18/04 A298 RMK A01 T01760036  RH  039%=      5-min Rain = 0
KJU1 110908Z 19005KT 18/04 A298 RMK A01 T01760035  RH  039%=      5-min Rain = 0
KJU1 110909Z 19005KT 18/03 A298 RMK A01 T01770034  RH  039%=      5-min Rain = 0
KJU1 110910Z 19004KT 18/04 A298 RMK A01 T01780035  RH  039%=      5-min Rain = 0
KJU1 110911Z 19005KT 18/04 A298 RMK A01 T01780035  RH  038%=      5-min Rain = 0
KJU1 110912Z 20005KT 18/04 A298 RMK A01 T01780035  RH  039%=      5-min Rain = 0
KJU1 110913Z 19007KT 18/04 A298 RMK A01 T01770036  RH  039%=      5-min Rain = 0
KJU1 110914Z 19006KT 18/04 A298 RMK A01 T01770036  RH  039%=      5-min Rain = 0
KJU1 110915Z 20005KT 18/03 A298 RMK A01 T01770034  RH  039%=      5-min Rain = 0
KJU1 110916Z 21003KT 18/03 A298 RMK A01 T01780033  RH  038%=      5-min Rain = 0
KJU1 110917Z 21003KT 18/03 A298 RMK A01 T01790033  RH  038%=      5-min Rain = 0
KJU1 110918Z 19004KT 18/03 A298 RMK A01 T01800033  RH  038%=      5-min Rain = 0
KJU1 110919Z 19004KT 18/03 A298 RMK A01 T01800034  RH  038%=      5-min Rain = 0
KJU1 110920Z 18004KT 18/03 A298 RMK A01 T01800034  RH  038%=      5-min Rain = 0
KJU1 110921Z 18004KT 18/03 A298 RMK A01 T01800034  RH  038%=      5-min Rain = 0
KJU1 110922Z 18004KT 18/04 A298 RMK A01 T01790035  RH  038%=      5-min Rain = 0
KJU1 110923Z 18005KT 18/04 A298 RMK A01 T01780036  RH  039%=      5-min Rain = 0
KJU1 110924Z 18005KT 18/04 A298 RMK A01 T01770036  RH  039%=      5-min Rain = 0
KJU1 110925Z 18005KT 18/04 A2981 RMK A01 T01770036  RH  039%=      5-min Rain = 0
KJU1 110926Z 18004KT 18/04 A2981 RMK A01 T01770037  RH  039%=      5-min Rain = 0
KJU1 110927Z 20005KT 18/04 A2981 RMK A01 T01760037  RH  039%=      5-min Rain = 0
KJU1 110928Z 20004KT 18/04 A2981 RMK A01 T01760037  RH  040%=      5-min Rain = 0
KJU1 110929Z 19004KT 18/04 A2981 RMK A01 T01760037  RH  040%=      5-min Rain = 0
KJU1 110930Z 18004KT 18/04 A2981 RMK A01 T01750037  RH  040%=      5-min Rain = 0
KJU1 110931Z 19004KT 18/04 A2981 RMK A01 T01750038  RH  040%=      5-min Rain = 0
KJU1 110932Z 18004KT 18/04 A2981 RMK A01 T01750037  RH  040%=      5-min Rain = 0
KJU1 110933Z 18003KT 18/04 A2981 RMK A01 T01750037  RH  040%=      5-min Rain = 0
KJU1 110934Z 17005KT 18/04 A298 RMK A01 T01750038  RH  040%=      5-min Rain = 0
KJU1 110935Z 17005KT 18/04 A298 RMK A01 T01750038  RH  040%=      5-min Rain = 0
KJU1 110936Z 17005KT 17/04 A298 RMK A01 T01740038  RH  040%=      5-min Rain = 0
KJU1 110937Z 17004KT 17/04 A298 RMK A01 T01740038  RH  040%=      5-min Rain = 0
KJU1 110938Z 17004KT 17/04 A298 RMK A01 T01740038  RH  040%=      5-min Rain = 0
KJU1 110939Z 17005KT 17/04 A298 RMK A01 T01740039  RH  041%=      5-min Rain = 0
KJU1 110940Z 17004KT 17/04 A298 RMK A01 T01730038  RH  041%=      5-min Rain = 0
KJU1 110941Z 18005KT 17/04 A298 RMK A01 T01730039  RH  041%=      5-min Rain = 0
KJU1 110942Z 19005KT 17/04 A298 RMK A01 T01730039  RH  041%=      5-min Rain = 0
KJU1 110943Z 18005KT 17/04 A298 RMK A01 T01730039  RH  041%=      5-min Rain = 0
KJU1 110944Z 18005KT 17/04 A298 RMK A01 T01730039  RH  041%=      5-min Rain = 0
KJU1 110945Z 18006KT 17/04 A298 RMK A01 T01730039  RH  041%=      5-min Rain = 0
KJU1 110946Z 18005KT 17/04 A298 RMK A01 T01730038  RH  041%=      5-min Rain = 0
KJU1 110947Z 17004KT 17/04 A298 RMK A01 T01730038  RH  041%=      5-min Rain = 0
KJU1 110948Z 16004KT 17/04 A298 RMK A01 T01730039  RH  041%=      5-min Rain = 0
KJU1 110949Z 17003KT 17/04 A298 RMK A01 T01730038  RH  041%=      5-min Rain = 0
KJU1 110950Z 17002KT 17/04 A298 RMK A01 T01730038  RH  041%=      5-min Rain = 0
KJU1 110951Z 17002KT 17/04 A298 RMK A01 T01730038  RH  041%=      5-min Rain = 0
KJU1 110952Z 18003KT 17/04 A2981 RMK A01 T01730038  RH  041%=      5-min Rain = 0
KJU1 110953Z 17003KT 17/04 A298 RMK A01 T01730038  RH  041%=      5-min Rain = 0
KJU1 110954Z 16003KT 17/04 A298 RMK A01 T01730038  RH  041%=      5-min Rain = 0
KJU1 110955Z 16003KT 17/04 A298 RMK A01 T01730038  RH  041%=      5-min Rain = 0
KJU1 110956Z 15002KT 17/04 A298 RMK A01 T01730038  RH  041%=      5-min Rain = 0
KJU1 110957Z 16003KT 17/04 A2981 RMK A01 T01730038  RH  041%=      5-min Rain = 0
KJU1 110958Z 15003KT 17/04 A298 RMK A01 T01730037  RH  040%=      5-min Rain = 0
KJU1 110959Z 15003KT 17/04 A298 RMK A01 T01740037  RH  040%=      5-min Rain = 0
KJU1 111000Z 15004KT 17/04 A298 RMK A01 T01740037  RH  040%=      5-min Rain = 0
KJU1 111001Z 16004KT 18/04 A298 RMK A01 T01750037  RH  040%=      5-min Rain = 0
KJU1 111002Z 16005KT 18/04 A298 RMK A01 T01750038  RH  040%=      5-min Rain = 0
KJU1 111003Z 17005KT 17/04 A298 RMK A01 T01740039  RH  040%=      5-min Rain = 0
KJU1 111004Z 18006KT 17/04 A2981 RMK A01 T01740039  RH  041%=      5-min Rain = 0
KJU1 111005Z 18006KT 17/04 A2981 RMK A01 T01740036  RH  040%=      5-min Rain = 0
KJU1 111006Z 17006KT 18/04 A2981 RMK A01 T01750037  RH  040%=      5-min Rain = 0
KJU1 111007Z 16005KT 18/04 A2981 RMK A01 T01750038  RH  040%=      5-min Rain = 0
KJU1 111008Z 16005KT 18/04 A298 RMK A01 T01750037  RH  040%=      5-min Rain = 0
KJU1 111009Z 15004KT 18/04 A298 RMK A01 T01750036  RH  039%=      5-min Rain = 0
KJU1 111010Z 16004KT 18/04 A298 RMK A01 T01760036  RH  039%=      5-min Rain = 0
KJU1 111011Z 16004KT 18/04 A298 RMK A01 T01760036  RH  039%=      5-min Rain = 0
KJU1 111012Z 16004KT 18/04 A298 RMK A01 T01760035  RH  039%=      5-min Rain = 0
KJU1 111013Z 15004KT 18/04 A298 RMK A01 T01760035  RH  039%=      5-min Rain = 0
KJU1 111014Z 16004KT 18/04 A2979 RMK A01 T01760035  RH  039%=      5-min Rain = 0
KJU1 111015Z 18004KT 18/03 A298 RMK A01 T01760034  RH  039%=      5-min Rain = 0
KJU1 111016Z 19003KT 18/04 A298 RMK A01 T01770036  RH  039%=      5-min Rain = 0
KJU1 111017Z 20004KT 18/04 A298 RMK A01 T01760037  RH  039%=      5-min Rain = 0
KJU1 111018Z 20005KT 18/04 A2981 RMK A01 T01760036  RH  039%=      5-min Rain = 0
KJU1 111019Z 20007KT 18/04 A2981 RMK A01 T01760035  RH  039%=      5-min Rain = 0
KJU1 111020Z 20007KT 18/04 A2981 RMK A01 T01760036  RH  039%=      5-min Rain = 0
KJU1 111021Z 19005KT 18/04 A2981 RMK A01 T01770036  RH  039%=      5-min Rain = 0
KJU1 111022Z 19005KT 18/04 A2981 RMK A01 T01770035  RH  039%=      5-min Rain = 0
KJU1 111023Z 20005KT 18/04 A2981 RMK A01 T01770036  RH  039%=      5-min Rain = 0
KJU1 111024Z 21005KT 18/04 A2981 RMK A01 T01760037  RH  039%=      5-min Rain = 0
KJU1 111025Z 20005KT 18/04 A2981 RMK A01 T01760037  RH  040%=      5-min Rain = 0
KJU1 111026Z 21005KT 18/04 A2981 RMK A01 T01760037  RH  040%=      5-min Rain = 0
KJU1 111027Z 21005KT 18/04 A2981 RMK A01 T01760037  RH  040%=      5-min Rain = 0
KJU1 111028Z 21004KT 18/04 A2982 RMK A01 T01760037  RH  040%=      5-min Rain = 0
KJU1 111029Z 20005KT 18/04 A2981 RMK A01 T01760037  RH  039%=      5-min Rain = 0
KJU1 111030Z 20005KT 18/04 A2981 RMK A01 T01760036  RH  039%=      5-min Rain = 0
KJU1 111031Z 20005KT 18/04 A2981 RMK A01 T01770038  RH  040%=      5-min Rain = 0
KJU1 111032Z 20005KT 18/04 A2981 RMK A01 T01770037  RH  040%=      5-min Rain = 0
KJU1 111033Z 21005KT 18/04 A2982 RMK A01 T01760037  RH  039%=      5-min Rain = 0
KJU1 111034Z 20005KT 18/04 A2982 RMK A01 T01760035  RH  039%=      5-min Rain = 0
KJU1 111035Z 20006KT 18/04 A2982 RMK A01 T01770036  RH  039%=      5-min Rain = 0
KJU1 111036Z 20005KT 18/04 A2982 RMK A01 T01770036  RH  039%=      5-min Rain = 0
KJU1 111037Z 21005KT 18/04 A2982 RMK A01 T01770036  RH  039%=      5-min Rain = 0
KJU1 111038Z 21005KT 18/04 A2982 RMK A01 T01770036  RH  039%=      5-min Rain = 0
KJU1 111039Z 22004KT 18/04 A2982 RMK A01 T01780035  RH  039%=      5-min Rain = 0
KJU1 111040Z 22005KT 18/04 A2982 RMK A01 T01780035  RH  038%=      5-min Rain = 0
KJU1 111041Z 20005KT 18/04 A2982 RMK A01 T01780035  RH  038%=      5-min Rain = 0
KJU1 111042Z 20005KT 18/04 A2982 RMK A01 T01790035  RH  038%=      5-min Rain = 0
KJU1 111043Z 19005KT 18/04 A2982 RMK A01 T01790035  RH  038%=      5-min Rain = 0
KJU1 111044Z 20004KT 18/04 A2981 RMK A01 T01790035  RH  038%=      5-min Rain = 0
KJU1 111045Z 19004KT 18/04 A2981 RMK A01 T01790035  RH  038%=      5-min Rain = 0
KJU1 111046Z 19003KT 18/03 A2981 RMK A01 T01790034  RH  038%=      5-min Rain = 0
KJU1 111047Z 19002KT 18/03 A2982 RMK A01 T01790034  RH  038%=      5-min Rain = 0
KJU1 111048Z 17001KT 18/03 A2981 RMK A01 T01790034  RH  038%=      5-min Rain = 0
KJU1 111049Z 16002KT 18/04 A2981 RMK A01 T01790035  RH  038%=      5-min Rain = 0
KJU1 111050Z 15002KT 18/03 A2981 RMK A01 T01780034  RH  038%=      5-min Rain = 0
KJU1 111051Z 14002KT 18/03 A2981 RMK A01 T01780034  RH  038%=      5-min Rain = 0
KJU1 111052Z 14002KT 18/03 A2982 RMK A01 T01780034  RH  038%=      5-min Rain = 0
KJU1 111053Z 15002KT 18/03 A2982 RMK A01 T01780034  RH  038%=      5-min Rain = 0
KJU1 111054Z 14002KT 18/03 A2982 RMK A01 T01780034  RH  038%=      5-min Rain = 0
KJU1 111055Z 12002KT 18/03 A2982 RMK A01 T01780034  RH  038%=      5-min Rain = 0
KJU1 111056Z 12002KT 18/03 A2982 RMK A01 T01780034  RH  038%=      5-min Rain = 0
KJU1 111057Z 12003KT 18/03 A2982 RMK A01 T01770033  RH  038%=      5-min Rain = 0
KJU1 111058Z 14004KT 18/03 A2981 RMK A01 T01780033  RH  038%=      5-min Rain = 0
KJU1 111059Z 14004KT 18/03 A2981 RMK A01 T01780033  RH  038%=      5-min Rain = 0
KJU1 111100Z 14004KT 18/03 A2981 RMK A01 T01780033  RH  038%=      5-min Rain = 0
KJU1 111101Z 14004KT 18/03 A2981 RMK A01 T01780033  RH  038%=      5-min Rain = 0
KJU1 111102Z 14004KT 18/03 A2981 RMK A01 T01780032  RH  038%=      5-min Rain = 0
KJU1 111103Z 11003KT 18/03 A2981 RMK A01 T01790030  RH  037%=      5-min Rain = 0
KJU1 111104Z 11003KT 18/03 A2981 RMK A01 T01800030  RH  037%=      5-min Rain = 0
KJU1 111105Z 11002KT 18/03 A2981 RMK A01 T01800031  RH  037%=      5-min Rain = 0
KJU1 111106Z 11002KT 18/03 A2981 RMK A01 T01810029  RH  036%=      5-min Rain = 0
KJU1 111107Z 08002KT 18/03 A2981 RMK A01 T01810028  RH  036%=      5-min Rain = 0
KJU1 111108Z 09002KT 18/03 A2982 RMK A01 T01820029  RH  036%=      5-min Rain = 0
KJU1 111109Z 11002KT 18/03 A2982 RMK A01 T01830028  RH  036%=      5-min Rain = 0
KJU1 111110Z 11003KT 18/03 A2982 RMK A01 T01830025  RH  035%=      5-min Rain = 0
KJU1 111111Z 12002KT 18/03 A2982 RMK A01 T01840028  RH  035%=      5-min Rain = 0
KJU1 111112Z 12001KT 18/04 A2982 RMK A01 T01840037  RH  037%=      5-min Rain = 0
KJU1 111113Z 11001KT 18/03 A2982 RMK A01 T01820033  RH  037%=      5-min Rain = 0
KJU1 111114Z 12001KT 18/03 A2982 RMK A01 T01820031  RH  037%=      5-min Rain = 0
KJU1 111115Z 10001KT 18/03 A2982 RMK A01 T01810032  RH  037%=      5-min Rain = 0
KJU1 111116Z 02001KT 18/03 A2982 RMK A01 T01810033  RH  037%=      5-min Rain = 0
KJU1 111117Z 05000KT 18/04 A2982 RMK A01 T01800036  RH  038%=      5-min Rain = 0
KJU1 111118Z 36002KT 18/04 A2982 RMK A01 T01790035  RH  038%=      5-min Rain = 0
KJU1 111119Z 34003KT 18/03 A2982 RMK A01 T01790033  RH  038%=      5-min Rain = 0
KJU1 111120Z 00003KT 18/03 A2982 RMK A01 T01800028  RH  036%=      5-min Rain = 0
KJU1 111121Z 35004KT 18/03 A2982 RMK A01 T01810031  RH  037%=      5-min Rain = 0
KJU1 111122Z 36005KT 18/03 A2983 RMK A01 T01820031  RH  037%=      5-min Rain = 0
KJU1 111123Z 00004KT 18/03 A2983 RMK A01 T01820031  RH  037%=      5-min Rain = 0
KJU1 111124Z 35004KT 18/03 A2983 RMK A01 T01830031  RH  036%=      5-min Rain = 0
KJU1 111125Z 34004KT 18/03 A2983 RMK A01 T01840030  RH  036%=      5-min Rain = 0
KJU1 111126Z 34005G10KT 18/03 A2984 RMK A01 T01840031  RH  036%=      5-min Rain = 0
KJU1 111127Z 33006G12KT 19/03 A2984 RMK A01 T01860028  RH  035%=      5-min Rain = 0
KJU1 111128Z 33010G16KT 19/02 A2984 RMK A01 T01920017  RH  031%=      5-min Rain = 0
KJU1 111129Z 33009KT 20/01 A2984 RMK A01 T02010014  RH  029%=      5-min Rain = 0
KJU1 111130Z 32010KT 21/01 A2984 RMK A01 T02070012  RH  027%=      5-min Rain = 0
KJU1 111131Z 32010KT 21/01 A2984 RMK A01 T02100011  RH  027%=      5-min Rain = 0
KJU1 111132Z 32008KT 21/01 A2985 RMK A01 T02120011  RH  026%=      5-min Rain = 0
KJU1 111133Z 32009KT 21/01 A2985 RMK A01 T02130011  RH  026%=      5-min Rain = 0
KJU1 111134Z 32010G15KT 21/01 A2985 RMK A01 T02130011  RH  026%=      5-min Rain = 0
KJU1 111135Z 32010G15KT 21/01 A2985 RMK A01 T02130010  RH  026%=      5-min Rain = 0
KJU1 111136Z 32011KT 21/01 A2986 RMK A01 T02130009  RH  026%=      5-min Rain = 0
KJU1 111137Z 32010KT 21/01 A2986 RMK A01 T02130009  RH  026%=      5-min Rain = 0
KJU1 111138Z 32013KT 21/01 A2986 RMK A01 T02130008  RH  026%=      5-min Rain = 0
KJU1 111139Z 32013KT 22/01 A2986 RMK A01 T02150005  RH  025%=      5-min Rain = 0
KJU1 111140Z 32013G18KT 22/00 A2986 RMK A01 T02170004  RH  024%=      5-min Rain = 0
KJU1 111141Z 33011KT 22/00 A2986 RMK A01 T02180002  RH  024%=      5-min Rain = 0
KJU1 111142Z 33011KT 22/00 A2986 RMK A01 T02190002  RH  024%=      5-min Rain = 0
KJU1 111143Z 33010KT 22/00 A2986 RMK A01 T02190003  RH  024%=      5-min Rain = 0
KJU1 111144Z 35010KT 22/00 A2986 RMK A01 T02180004  RH  024%=      5-min Rain = 0
KJU1 111145Z 34013G18KT 22/01 A2986 RMK A01 T02170008  RH  025%=      5-min Rain = 0
KJU1 111146Z 35014KT 22/01 A2987 RMK A01 T02160012  RH  026%=      5-min Rain = 0
KJU1 111147Z 35010G18KT 21/02 A2987 RMK A01 T02140015  RH  027%=      5-min Rain = 0
KJU1 111148Z 35012KT 21/02 A2987 RMK A01 T02120020  RH  028%=      5-min Rain = 0
KJU1 111149Z 35012KT 21/03 A2987 RMK A01 T02100026  RH  030%=      5-min Rain = 0
KJU1 111150Z 35016G23KT 21/03 A2988 RMK A01 T02080030  RH  031%=      5-min Rain = 0
KJU1 111151Z 35017KT 21/04 A2988 RMK A01 T02060039  RH  033%=      5-min Rain = 0
KJU1 111152Z 35012G17KT 20/05 A2988 RMK A01 T02040045  RH  035%=      5-min Rain = 0
KJU1 111153Z 34017G22KT 20/05 A2988 RMK A01 T02020051  RH  037%=      5-min Rain = 0
KJU1 111154Z 35014G21KT 20/06 A2988 RMK A01 T02000057  RH  039%=      5-min Rain = 0
KJU1 111155Z 35015KT 20/06 A2988 RMK A01 T01990059  RH  040%=      5-min Rain = 0
KJU1 111156Z 35014KT 20/06 A2988 RMK A01 T01980061  RH  041%=      5-min Rain = 0
KJU1 111157Z 36015G20KT 20/06 A2989 RMK A01 T01970062  RH  041%=      5-min Rain = 0
KJU1 111158Z 00011KT 20/06 A2989 RMK A01 T01960063  RH  042%=      5-min Rain = 0
KJU1 111159Z 35010G15KT 20/06 A2989 RMK A01 T01950064  RH  042%=      5-min Rain = 0
KJU1 111200Z 36014KT 20/06 A2989 RMK A01 T01950064  RH  043%=      5-min Rain = 0
KJU1 111201Z 35015KT 19/07 A2989 RMK A01 T01940065  RH  043%=      5-min Rain = 0
KJU1 111202Z 35017G23KT 19/06 A2989 RMK A01 T01930064  RH  043%=      5-min Rain = 0
KJU1 111203Z 35017G22KT 19/06 A299 RMK A01 T01940064  RH  043%=      5-min Rain = 0
KJU1 111204Z 00016G21KT 19/07 A299 RMK A01 T01940065  RH  043%=      5-min Rain = 0
KJU1 111205Z 36015KT 19/07 A299 RMK A01 T01930065  RH  043%=      5-min Rain = 0
KJU1 111206Z 01013KT 19/07 A299 RMK A01 T01920065  RH  044%=      5-min Rain = 0
KJU1 111207Z 01015KT 19/07 A299 RMK A01 T01920066  RH  044%=      5-min Rain = 0
KJU1 111208Z 00012G17KT 19/07 A299 RMK A01 T01910067  RH  044%=      5-min Rain = 0
KJU1 111209Z 01013G18KT 19/07 A299 RMK A01 T01910068  RH  045%=      5-min Rain = 0
KJU1 111210Z 00013G18KT 19/07 A299 RMK A01 T01900069  RH  045%=      5-min Rain = 0
KJU1 111211Z 00011KT 19/07 A299 RMK A01 T01890069  RH  046%=      5-min Rain = 0
KJU1 111212Z 00012KT 19/07 A299 RMK A01 T01880070  RH  046%=      5-min Rain = 0
KJU1 111213Z 01012G17KT 19/07 A299 RMK A01 T01880071  RH  047%=      5-min Rain = 0
KJU1 111214Z 01009KT 19/07 A299 RMK A01 T01870072  RH  047%=      5-min Rain = 0
KJU1 111215Z 00012KT 19/07 A299 RMK A01 T01860073  RH  047%=      5-min Rain = 0
KJU1 111216Z 36011KT 19/07 A299 RMK A01 T01860074  RH  048%=      5-min Rain = 0
KJU1 111217Z 35010KT 19/08 A2991 RMK A01 T01860075  RH  048%=      5-min Rain = 0
KJU1 111218Z 00010KT 19/08 A2991 RMK A01 T01850077  RH  049%=      5-min Rain = 0
KJU1 111219Z 00010KT 19/08 A2991 RMK A01 T01850078  RH  050%=      5-min Rain = 0
KJU1 111220Z 36011G17KT 18/08 A2991 RMK A01 T01840082  RH  051%=      5-min Rain = 0
KJU1 111221Z 01012KT 18/09 A2991 RMK A01 T01830085  RH  053%=      5-min Rain = 0
KJU1 111222Z 00010KT 18/09 A2991 RMK A01 T01820088  RH  054%=      5-min Rain = 0
KJU1 111223Z 01011KT 18/09 A2992 RMK A01 T01820090  RH  055%=      5-min Rain = 0
KJU1 111224Z 36009KT 18/09 A2992 RMK A01 T01810092  RH  056%=      5-min Rain = 0
KJU1 111225Z 00011G17KT 18/10 A2992 RMK A01 T01800095  RH  058%=      5-min Rain = 0
KJU1 111226Z 01013G19KT 18/10 A2992 RMK A01 T01790099  RH  059%=      5-min Rain = 0
KJU1 111227Z 01015KT 18/10 A2993 RMK A01 T01790101  RH  060%=      5-min Rain = 0
KJU1 111228Z 01012KT 18/10 A2993 RMK A01 T01790103  RH  061%=      5-min Rain = 0
KJU1 111229Z 01009G14KT 18/10 A2993 RMK A01 T01780103  RH  061%=      5-min Rain = 0
KJU1 111230Z 01009KT 18/10 A2993 RMK A01 T01780103  RH  062%=      5-min Rain = 0
KJU1 111231Z 02012KT 18/10 A2994 RMK A01 T01770104  RH  062%=      5-min Rain = 0
KJU1 111232Z 02011KT 18/10 A2994 RMK A01 T01770104  RH  062%=      5-min Rain = 0
KJU1 111233Z 02010KT 18/10 A2994 RMK A01 T01770104  RH  063%=      5-min Rain = 0
KJU1 111234Z 02009G14KT 18/11 A2994 RMK A01 T01760105  RH  063%=      5-min Rain = 0
KJU1 111235Z 02010KT 18/11 A2994 RMK A01 T01760105  RH  063%=      5-min Rain = 0
KJU1 111236Z 02008KT 18/11 A2994 RMK A01 T01750106  RH  064%=      5-min Rain = 0
KJU1 111237Z 02008KT 18/11 A2994 RMK A01 T01750106  RH  064%=      5-min Rain = 0
KJU1 111238Z 02008KT 18/11 A2994 RMK A01 T01750106  RH  064%=      5-min Rain = 0
KJU1 111239Z 01007KT 17/11 A2994 RMK A01 T01740107  RH  064%=      5-min Rain = 0
KJU1 111240Z 01008KT 17/11 A2994 RMK A01 T01740107  RH  065%=      5-min Rain = 0
KJU1 111241Z 02008KT 17/11 A2995 RMK A01 T01740108  RH  065%=      5-min Rain = 0
KJU1 111242Z 02007KT 17/11 A2995 RMK A01 T01740108  RH  065%=      5-min Rain = 0
KJU1 111243Z 03006KT 17/11 A2995 RMK A01 T01740109  RH  066%=      5-min Rain = 0
KJU1 111244Z 03009KT 17/11 A2995 RMK A01 T01730109  RH  066%=      5-min Rain = 0
KJU1 111245Z 01007KT 17/11 A2995 RMK A01 T01730109  RH  066%=      5-min Rain = 0
KJU1 111246Z 01007KT 17/11 A2996 RMK A01 T01730110  RH  067%=      5-min Rain = 0
KJU1 111247Z 01006KT 17/11 A2996 RMK A01 T01720111  RH  067%=      5-min Rain = 0
KJU1 111248Z 01010KT 17/11 A2996 RMK A01 T01720111  RH  067%=      5-min Rain = 0
KJU1 111249Z 01008KT 17/11 A2996 RMK A01 T01720112  RH  068%=      5-min Rain = 0
KJU1 111250Z 02008KT 17/11 A2996 RMK A01 T01730112  RH  068%=      5-min Rain = 0
KJU1 111251Z 01011KT 17/11 A2996 RMK A01 T01720112  RH  068%=      5-min Rain = 0
KJU1 111252Z 01010KT 17/11 A2996 RMK A01 T01720113  RH  068%=      5-min Rain = 0
KJU1 111253Z 01011G17KT 17/11 A2996 RMK A01 T01720113  RH  068%=      5-min Rain = 0
KJU1 111254Z 01013KT 17/11 A2996 RMK A01 T01720113  RH  068%=      5-min Rain = 0
KJU1 111255Z 01011KT 17/11 A2996 RMK A01 T01720114  RH  069%=      5-min Rain = 0
KJU1 111256Z 01008KT 17/11 A2996 RMK A01 T01720114  RH  069%=      5-min Rain = 0
KJU1 111257Z 01007KT 17/11 A2996 RMK A01 T01720114  RH  069%=      5-min Rain = 0
KJU1 111258Z 02009KT 17/12 A2996 RMK A01 T01710115  RH  069%=      5-min Rain = 0
KJU1 111259Z 36007KT 17/12 A2996 RMK A01 T01710115  RH  069%=      5-min Rain = 0
KJU1 111300Z 01011G18KT 17/12 A2996 RMK A01 T01710115  RH  069%=      5-min Rain = 0
KJU1 111301Z 00013G18KT 17/12 A2996 RMK A01 T01710116  RH  070%=      5-min Rain = 0
KJU1 111302Z 01014KT 17/12 A2996 RMK A01 T01710117  RH  070%=      5-min Rain = 0
KJU1 111303Z 01012KT 17/12 A2996 RMK A01 T01710117  RH  071%=      5-min Rain = 0
KJU1 111304Z 01013KT 17/12 A2997 RMK A01 T01710117  RH  071%=      5-min Rain = 0
KJU1 111305Z 02012KT 17/12 A2997 RMK A01 T01700117  RH  071%=      5-min Rain = 0
KJU1 111306Z 01012G17KT 17/12 A2997 RMK A01 T01700118  RH  071%=      5-min Rain = 0
KJU1 111307Z 02014KT 17/12 A2997 RMK A01 T01700118  RH  071%=      5-min Rain = 0
KJU1 111308Z 02012G17KT 17/12 A2997 RMK A01 T01700118  RH  071%=      5-min Rain = 0
KJU1 111309Z 02010KT 17/12 A2997 RMK A01 T01700118  RH  071%=      5-min Rain = 0
KJU1 111310Z 02014KT 17/12 A2997 RMK A01 T01700118  RH  071%=      5-min Rain = 0
KJU1 111311Z 02014KT 17/12 A2997 RMK A01 T01700118  RH  071%=      5-min Rain = 0
KJU1 111312Z 01015KT 17/12 A2997 RMK A01 T01700118  RH  072%=      5-min Rain = 0
KJU1 111313Z 02011KT 17/12 A2997 RMK A01 T01700118  RH  072%=      5-min Rain = 0
KJU1 111314Z 02012KT 17/12 A2997 RMK A01 T01700119  RH  072%=      5-min Rain = 0
KJU1 111315Z 02016G21KT 17/12 A2997 RMK A01 T01700119  RH  072%=      5-min Rain = 0
KJU1 111316Z 01012G18KT 17/12 A2997 RMK A01 T01700119  RH  072%=      5-min Rain = 0
KJU1 111317Z 02013KT 17/12 A2997 RMK A01 T01700119  RH  072%=      5-min Rain = 0
KJU1 111318Z 03016KT 17/12 A2998 RMK A01 T01700119  RH  072%=      5-min Rain = 0
KJU1 111319Z 01011KT 17/12 A2998 RMK A01 T01700119  RH  072%=      5-min Rain = 0
KJU1 111320Z 01010G17KT 17/12 A2998 RMK A01 T01700119  RH  072%=      5-min Rain = 0
KJU1 111321Z 01013G18KT 17/12 A2998 RMK A01 T01700119  RH  072%=      5-min Rain = 0
KJU1 111322Z 02014KT 17/12 A2998 RMK A01 T01700119  RH  072%=      5-min Rain = 0
KJU1 111323Z 02014KT 17/12 A2998 RMK A01 T01700119  RH  072%=      5-min Rain = 0
KJU1 111324Z 02013KT 17/12 A2999 RMK A01 T01700119  RH  072%=      5-min Rain = 0
KJU1 111325Z 36014G19KT 17/12 A2999 RMK A01 T01710120  RH  072%=      5-min Rain = 0
KJU1 111326Z 00015G20KT 17/12 A2999 RMK A01 T01700119  RH  072%=      5-min Rain = 0
KJU1 111327Z 01009G14KT 17/12 A2999 RMK A01 T01700119  RH  072%=      5-min Rain = 0
KJU1 111328Z 02012KT 17/12 A2999 RMK A01 T01700119  RH  072%=      5-min Rain = 0
KJU1 111329Z 01011KT 17/12 A2999 RMK A01 T01700119  RH  072%=      5-min Rain = 0
KJU1 111330Z 01009KT 17/12 A30 RMK A01 T01700119  RH  072%=      5-min Rain = 0
KJU1 111331Z 36012G17KT 17/12 A30 RMK A01 T01700119  RH  072%=      5-min Rain = 0
KJU1 111332Z 01011G16KT 17/12 A30 RMK A01 T01700120  RH  072%=      5-min Rain = 0
KJU1 111333Z 01012G20KT 17/12 A30 RMK A01 T01700119  RH  072%=      5-min Rain = 0
KJU1 111334Z 01013G19KT 17/12 A30 RMK A01 T01700119  RH  072%=      5-min Rain = 0
KJU1 111335Z 01011G17KT 17/12 A30 RMK A01 T01700119  RH  072%=      5-min Rain = 0
KJU1 111336Z 36012KT 17/12 A30 RMK A01 T01700120  RH  072%=      5-min Rain = 0
KJU1 111337Z 01009KT 17/12 A3001 RMK A01 T01700119  RH  072%=      5-min Rain = 0
KJU1 111338Z 01011KT 17/12 A3001 RMK A01 T01700119  RH  072%=      5-min Rain = 0
KJU1 111339Z 36009KT 17/12 A3001 RMK A01 T01700119  RH  072%=      5-min Rain = 0
KJU1 111340Z 01009KT 17/12 A3001 RMK A01 T01700119  RH  072%=      5-min Rain = 0
KJU1 111341Z 01008KT 17/12 A3001 RMK A01 T01700119  RH  072%=      5-min Rain = 0
KJU1 111342Z 01010KT 17/12 A3001 RMK A01 T01700120  RH  072%=      5-min Rain = 0
KJU1 111343Z 02012G18KT 17/12 A3001 RMK A01 T01690119  RH  072%=      5-min Rain = 0
KJU1 111344Z 01013KT 17/12 A3002 RMK A01 T01690119  RH  072%=      5-min Rain = 0
KJU1 111345Z 01010KT 17/12 A3002 RMK A01 T01690119  RH  072%=      5-min Rain = 0
KJU1 111346Z 02013KT 17/12 A3002 RMK A01 T01690119  RH  072%=      5-min Rain = 0
KJU1 111347Z 02011KT 17/12 A3002 RMK A01 T01690119  RH  072%=      5-min Rain = 0
KJU1 111348Z 01010KT 17/12 A3002 RMK A01 T01690119  RH  072%=      5-min Rain = 0
KJU1 111349Z 01014KT 17/12 A3002 RMK A01 T01690118  RH  072%=      5-min Rain = 0
KJU1 111350Z 01012KT 17/12 A3002 RMK A01 T01690118  RH  072%=      5-min Rain = 0
KJU1 111351Z 01011KT 17/12 A3002 RMK A01 T01690118  RH  072%=      5-min Rain = 0
KJU1 111352Z 00011G16KT 17/12 A3002 RMK A01 T01690118  RH  072%=      5-min Rain = 0
KJU1 111353Z 35013KT 17/12 A3002 RMK A01 T01690118  RH  072%=      5-min Rain = 0
KJU1 111354Z 35013G19KT 17/12 A3002 RMK A01 T01680117  RH  072%=      5-min Rain = 0
KJU1 111355Z 35012KT 17/12 A3002 RMK A01 T01680117  RH  072%=      5-min Rain = 0
KJU1 111356Z 35010G19KT 17/12 A3002 RMK A01 T01680116  RH  072%=      5-min Rain = 0
KJU1 111357Z 36016G21KT 17/12 A3003 RMK A01 T01680115  RH  071%=      5-min Rain = 0
KJU1 111358Z 35013KT 17/12 A3003 RMK A01 T01670115  RH  071%=      5-min Rain = 0
KJU1 111359Z 35017G23KT 17/11 A3003 RMK A01 T01670114  RH  071%=      5-min Rain = 0
KJU1 111400Z 00014KT 17/11 A3003 RMK A01 T01660113  RH  071%=      5-min Rain = 0
KJU1 111401Z 00015KT 17/11 A3003 RMK A01 T01660111  RH  070%=      5-min Rain = 0
KJU1 111402Z 36013G19KT 17/11 A3003 RMK A01 T01650110  RH  070%=      5-min Rain = 0
KJU1 111403Z 00013G18KT 17/11 A3003 RMK A01 T01650109  RH  070%=      5-min Rain = 0
KJU1 111404Z 35013KT 16/11 A3003 RMK A01 T01640108  RH  069%=      5-min Rain = 0
KJU1 111405Z 01011KT 16/11 A3004 RMK A01 T01640106  RH  069%=      5-min Rain = 0
KJU1 111406Z 35015KT 16/11 A3004 RMK A01 T01630105  RH  069%=      5-min Rain = 0
KJU1 111407Z 36010KT 16/10 A3004 RMK A01 T01620104  RH  068%=      5-min Rain = 0
KJU1 111408Z 35013G18KT 16/10 A3004 RMK A01 T01620104  RH  068%=      5-min Rain = 0
KJU1 111409Z 35015KT 16/10 A3004 RMK A01 T01620103  RH  068%=      5-min Rain = 0
KJU1 111410Z 00009KT 16/10 A3004 RMK A01 T01610103  RH  068%=      5-min Rain = 0
KJU1 111411Z 36013KT 16/10 A3004 RMK A01 T01610103  RH  068%=      5-min Rain = 0
KJU1 111412Z 35015KT 16/10 A3004 RMK A01 T01610101  RH  068%=      5-min Rain = 0
KJU1 111413Z 36010G15KT 16/10 A3004 RMK A01 T01610101  RH  067%=      5-min Rain = 0
KJU1 111414Z 35012KT 16/10 A3004 RMK A01 T01600100  RH  067%=      5-min Rain = 0
KJU1 111415Z 34011G18KT 16/10 A3004 RMK A01 T01600098  RH  067%=      5-min Rain = 0
KJU1 111416Z 35011KT 16/10 A3004 RMK A01 T01590097  RH  067%=      5-min Rain = 0
KJU1 111417Z 35013KT 16/10 A3004 RMK A01 T01590097  RH  066%=      5-min Rain = 0
KJU1 111418Z 35011KT 16/10 A3004 RMK A01 T01580096  RH  066%=      5-min Rain = 0
KJU1 111419Z 36013KT 16/10 A3004 RMK A01 T01580095  RH  066%=      5-min Rain = 0
KJU1 111420Z 36012KT 16/10 A3004 RMK A01 T01580095  RH  066%=      5-min Rain = 0
KJU1 111421Z 01010KT 16/10 A3004 RMK A01 T01580095  RH  066%=      5-min Rain = 0
KJU1 111422Z 01012G19KT 16/10 A3004 RMK A01 T01570095  RH  066%=      5-min Rain = 0
KJU1 111423Z 00013KT 16/09 A3004 RMK A01 T01570094  RH  066%=      5-min Rain = 0
KJU1 111424Z 36011G16KT 16/09 A3004 RMK A01 T01570094  RH  066%=      5-min Rain = 0
KJU1 111425Z 36011G17KT 16/09 A3004 RMK A01 T01570093  RH  066%=      5-min Rain = 0
KJU1 111426Z 36013G20KT 16/09 A3004 RMK A01 T01570093  RH  066%=      5-min Rain = 0
KJU1 111427Z 00015KT 16/09 A3004 RMK A01 T01560093  RH  066%=      5-min Rain = 0
KJU1 111428Z 36012G17KT 16/09 A3004 RMK A01 T01570093  RH  066%=      5-min Rain = 0
KJU1 111429Z 00012KT 16/09 A3004 RMK A01 T01560092  RH  066%=      5-min Rain = 0
KJU1 111430Z 01013KT 16/09 A3004 RMK A01 T01560092  RH  066%=      5-min Rain = 0
KJU1 111431Z 01012KT 16/09 A3005 RMK A01 T01560092  RH  066%=      5-min Rain = 0
KJU1 111432Z 01011KT 16/09 A3005 RMK A01 T01560092  RH  066%=      5-min Rain = 0
KJU1 111433Z 01014G19KT 16/09 A3005 RMK A01 T01560092  RH  066%=      5-min Rain = 0
KJU1 111434Z 01016KT 16/09 A3005 RMK A01 T01550091  RH  066%=      5-min Rain = 0
KJU1 111435Z 01011G16KT 15/09 A3005 RMK A01 T01540091  RH  066%=      5-min Rain = 0
KJU1 111436Z 02015KT 15/09 A3004 RMK A01 T01540091  RH  066%=      5-min Rain = 0
KJU1 111437Z 02015KT 15/09 A3005 RMK A01 T01530090  RH  066%=      5-min Rain = 0
KJU1 111438Z 02016KT 15/09 A3005 RMK A01 T01530090  RH  066%=      5-min Rain = 0
KJU1 111439Z 01013KT 15/09 A3005 RMK A01 T01530090  RH  066%=      5-min Rain = 0
KJU1 111440Z 01012KT 15/09 A3005 RMK A01 T01530090  RH  066%=      5-min Rain = 0
KJU1 111441Z 01013G18KT 15/09 A3005 RMK A01 T01530090  RH  066%=      5-min Rain = 0
KJU1 111442Z 02013KT 15/09 A3005 RMK A01 T01530090  RH  066%=      5-min Rain = 0
KJU1 111443Z 01014G19KT 15/09 A3005 RMK A01 T01530090  RH  066%=      5-min Rain = 0
KJU1 111444Z 01015KT 15/09 A3005 RMK A01 T01520089  RH  066%=      5-min Rain = 0
KJU1 111445Z 00012G17KT 15/09 A3005 RMK A01 T01520089  RH  066%=      5-min Rain = 0
KJU1 111446Z 00013G18KT 15/09 A3005 RMK A01 T01520089  RH  066%=      5-min Rain = 0
KJU1 111447Z 01013KT 15/09 A3005 RMK A01 T01520089  RH  066%=      5-min Rain = 0
KJU1 111448Z 01014KT 15/09 A3005 RMK A01 T01520089  RH  066%=      5-min Rain = 0
KJU1 111449Z 02015KT 15/09 A3005 RMK A01 T01510088  RH  066%=      5-min Rain = 0
KJU1 111450Z 02016KT 15/09 A3006 RMK A01 T01510088  RH  066%=      5-min Rain = 0
KJU1 111451Z 02014KT 15/09 A3006 RMK A01 T01510088  RH  066%=      5-min Rain = 0
KJU1 111452Z 02013KT 15/09 A3006 RMK A01 T01510087  RH  065%=      5-min Rain = 0
KJU1 111453Z 01010KT 15/09 A3006 RMK A01 T01510087  RH  065%=      5-min Rain = 0
KJU1 111454Z 01011G17KT 15/09 A3006 RMK A01 T01510087  RH  065%=      5-min Rain = 0
KJU1 111455Z 01011KT 15/09 A3006 RMK A01 T01510085  RH  065%=      5-min Rain = 0
KJU1 111456Z 01012KT 15/09 A3006 RMK A01 T01510085  RH  064%=      5-min Rain = 0
KJU1 111457Z 01012KT 15/08 A3006 RMK A01 T01510084  RH  064%=      5-min Rain = 0
KJU1 111458Z 01011G17KT 15/08 A3006 RMK A01 T01510083  RH  064%=      5-min Rain = 0
KJU1 111459Z 01011KT 15/08 A3006 RMK A01 T01510082  RH  063%=      5-min Rain = 0
KJU1 111500Z 00010KT 15/08 A3006 RMK A01 T01510082  RH  063%=      5-min Rain = 0
KJU1 111501Z 35009KT 15/08 A3006 RMK A01 T01510082  RH  063%=      5-min Rain = 0
KJU1 111502Z 01014KT 15/08 A3007 RMK A01 T01510080  RH  063%=      5-min Rain = 0
KJU1 111503Z 00009KT 15/08 A3007 RMK A01 T01510079  RH  062%=      5-min Rain = 0
KJU1 111504Z 01011KT 15/08 A3007 RMK A01 T01510079  RH  062%=      5-min Rain = 0
KJU1 111505Z 01010G15KT 15/08 A3007 RMK A01 T01510079  RH  062%=      5-min Rain = 0
KJU1 111506Z 02010KT 15/08 A3007 RMK A01 T01510079  RH  062%=      5-min Rain = 0
KJU1 111507Z 01013KT 15/08 A3007 RMK A01 T01500079  RH  062%=      5-min Rain = 0
KJU1 111508Z 00010KT 15/08 A3007 RMK A01 T01500078  RH  062%=      5-min Rain = 0
KJU1 111509Z 36011G16KT 15/08 A3007 RMK A01 T01500078  RH  062%=      5-min Rain = 0
KJU1 111510Z 01010KT 15/08 A3007 RMK A01 T01500078  RH  062%=      5-min Rain = 0
KJU1 111511Z 01010KT 15/08 A3007 RMK A01 T01500078  RH  062%=      5-min Rain = 0
KJU1 111512Z 02014KT 15/08 A3008 RMK A01 T01510078  RH  062%=      5-min Rain = 0
KJU1 111513Z 03015KT 15/08 A3008 RMK A01 T01510077  RH  061%=      5-min Rain = 0
KJU1 111514Z 03017KT 15/08 A3008 RMK A01 T01500075  RH  061%=      5-min Rain = 0
KJU1 111515Z 01016KT 15/07 A3008 RMK A01 T01500074  RH  061%=      5-min Rain = 0
KJU1 111516Z 02015KT 15/07 A3008 RMK A01 T01500074  RH  060%=      5-min Rain = 0
KJU1 111517Z 02010KT 15/07 A3008 RMK A01 T01490074  RH  061%=      5-min Rain = 0
KJU1 111518Z 01011G17KT 15/07 A3008 RMK A01 T01490074  RH  061%=      5-min Rain = 0
KJU1 111519Z 02018KT 15/07 A3008 RMK A01 T01500073  RH  060%=      5-min Rain = 0
KJU1 111520Z 02016KT 15/07 A3009 RMK A01 T01500072  RH  060%=      5-min Rain = 0
KJU1 111521Z 01015KT 15/07 A3008 RMK A01 T01490070  RH  059%=      5-min Rain = 0
KJU1 111522Z 01011KT 15/07 A3009 RMK A01 T01500069  RH  059%=      5-min Rain = 0
KJU1 111523Z 02013G19KT 15/07 A3009 RMK A01 T01490069  RH  059%=      5-min Rain = 0
KJU1 111524Z 02018KT 15/07 A3009 RMK A01 T01500067  RH  058%=      5-min Rain = 0
KJU1 111525Z 02015KT 15/07 A3009 RMK A01 T01490066  RH  058%=      5-min Rain = 0
KJU1 111526Z 02011KT 15/07 A3008 RMK A01 T01490065  RH  057%=      5-min Rain = 0
KJU1 111527Z 01011KT 15/07 A3009 RMK A01 T01490066  RH  057%=      5-min Rain = 0
KJU1 111528Z 01014G19KT 15/07 A3009 RMK A01 T01490065  RH  057%=      5-min Rain = 0
KJU1 111529Z 01013KT 15/06 A3009 RMK A01 T01490064  RH  057%=      5-min Rain = 0
KJU1 111530Z 01015KT 15/06 A3009 RMK A01 T01490063  RH  056%=      5-min Rain = 0
KJU1 111531Z 01015G21KT 15/06 A3009 RMK A01 T01490062  RH  056%=      5-min Rain = 0
KJU1 111532Z 02018G23KT 15/06 A3009 RMK A01 T01490061  RH  056%=      5-min Rain = 0
KJU1 111533Z 02014G20KT 15/06 A3009 RMK A01 T01480059  RH  055%=      5-min Rain = 0
KJU1 111534Z 01013G19KT 15/06 A3009 RMK A01 T01480059  RH  055%=      5-min Rain = 0
KJU1 111535Z 36012G17KT 15/06 A3009 RMK A01 T01480059  RH  055%=      5-min Rain = 0
KJU1 111536Z 01013G20KT 15/06 A3009 RMK A01 T01480058  RH  055%=      5-min Rain = 0
KJU1 111537Z 02014G21KT 15/06 A3009 RMK A01 T01480058  RH  055%=      5-min Rain = 0
KJU1 111538Z 01014KT 15/06 A3009 RMK A01 T01480057  RH  054%=      5-min Rain = 0
KJU1 111539Z 02011KT 15/06 A3009 RMK A01 T01480057  RH  054%=      5-min Rain = 0
KJU1 111540Z 01015G20KT 15/06 A3009 RMK A01 T01480057  RH  054%=      5-min Rain = 0
KJU1 111541Z 02016G23KT 15/06 A301 RMK A01 T01480056  RH  054%=      5-min Rain = 0
KJU1 111542Z 02014KT 15/06 A301 RMK A01 T01480056  RH  054%=      5-min Rain = 0
KJU1 111543Z 02010KT 15/06 A301 RMK A01 T01480056  RH  054%=      5-min Rain = 0
KJU1 111544Z 01011KT 15/06 A301 RMK A01 T01490057  RH  054%=      5-min Rain = 0
KJU1 111545Z 02009KT 15/06 A301 RMK A01 T01490056  RH  054%=      5-min Rain = 0
KJU1 111546Z 03012G18KT 15/06 A301 RMK A01 T01490056  RH  054%=      5-min Rain = 0
KJU1 111547Z 02017KT 15/05 A301 RMK A01 T01500054  RH  053%=      5-min Rain = 0
KJU1 111548Z 01014G19KT 15/05 A301 RMK A01 T01500053  RH  052%=      5-min Rain = 0
KJU1 111549Z 02017G22KT 15/05 A301 RMK A01 T01490053  RH  052%=      5-min Rain = 0
KJU1 111550Z 02018KT 15/05 A301 RMK A01 T01490050  RH  051%=      5-min Rain = 0
KJU1 111551Z 01016G21KT 15/05 A301 RMK A01 T01490049  RH  051%=      5-min Rain = 0
KJU1 111552Z 01015G20KT 15/05 A301 RMK A01 T01490048  RH  051%=      5-min Rain = 0
KJU1 111553Z 02017G22KT 15/05 A301 RMK A01 T01500047  RH  050%=      5-min Rain = 0
KJU1 111554Z 01015G21KT 15/05 A301 RMK A01 T01500046  RH  050%=      5-min Rain = 0
KJU1 111555Z 02019KT 15/05 A301 RMK A01 T01500046  RH  050%=      5-min Rain = 0
KJU1 111556Z 02017KT 15/05 A301 RMK A01 T01500046  RH  050%=      5-min Rain = 0
KJU1 111557Z 02017KT 15/05 A301 RMK A01 T01510045  RH  049%=      5-min Rain = 0
KJU1 111558Z 02018G23KT 15/04 A301 RMK A01 T01510044  RH  049%=      5-min Rain = 0
KJU1 111559Z 02013G21KT 15/05 A301 RMK A01 T01500045  RH  049%=      5-min Rain = 0
KJU1 111600Z 02011G17KT 15/05 A301 RMK A01 T01510045  RH  049%=      5-min Rain = 0
KJU1 111601Z 02013KT 15/05 A301 RMK A01 T01520046  RH  049%=      5-min Rain = 0
KJU1 111602Z 03016KT 15/04 A301 RMK A01 T01520044  RH  049%=      5-min Rain = 0
KJU1 111603Z 02016KT 15/04 A301 RMK A01 T01520044  RH  048%=      5-min Rain = 0
KJU1 111604Z 03014G19KT 15/04 A301 RMK A01 T01520044  RH  048%=      5-min Rain = 0
KJU1 111605Z 02017G22KT 15/04 A301 RMK A01 T01520043  RH  048%=      5-min Rain = 0
KJU1 111606Z 03019KT 15/04 A301 RMK A01 T01520041  RH  047%=      5-min Rain = 0
KJU1 111607Z 02016KT 15/04 A301 RMK A01 T01530040  RH  047%=      5-min Rain = 0
KJU1 111608Z 02014KT 15/04 A301 RMK A01 T01530040  RH  047%=      5-min Rain = 0
KJU1 111609Z 02021KT 15/04 A301 RMK A01 T01540040  RH  046%=      5-min Rain = 0
KJU1 111610Z 02020G26KT 15/04 A301 RMK A01 T01540038  RH  046%=      5-min Rain = 0
KJU1 111611Z 02018KT 15/04 A301 RMK A01 T01540037  RH  046%=      5-min Rain = 0
KJU1 111612Z 02017G22KT 15/04 A301 RMK A01 T01540037  RH  046%=      5-min Rain = 0
KJU1 111613Z 03015G20KT 15/04 A301 RMK A01 T01540037  RH  046%=      5-min Rain = 0
KJU1 111614Z 02019G27KT 15/04 A301 RMK A01 T01540037  RH  045%=      5-min Rain = 0
KJU1 111615Z 02019G25KT 15/04 A301 RMK A01 T01540035  RH  045%=      5-min Rain = 0
KJU1 111616Z 02013KT 16/04 A301 RMK A01 T01550036  RH  045%=      5-min Rain = 0
KJU1 111617Z 03018KT 16/04 A301 RMK A01 T01550036  RH  045%=      5-min Rain = 0
KJU1 111618Z 02016KT 16/04 A301 RMK A01 T01550035  RH  044%=      5-min Rain = 0
KJU1 111619Z 02017KT 16/04 A301 RMK A01 T01560035  RH  044%=      5-min Rain = 0
KJU1 111620Z 02015G20KT 16/03 A3011 RMK A01 T01560034  RH  044%=      5-min Rain = 0
KJU1 111621Z 02016KT 16/04 A301 RMK A01 T01570035  RH  044%=      5-min Rain = 0
KJU1 111622Z 03016KT 16/03 A3011 RMK A01 T01570034  RH  044%=      5-min Rain = 0
KJU1 111623Z 02012G17KT 16/03 A301 RMK A01 T01570034  RH  044%=      5-min Rain = 0
KJU1 111624Z 03021G29KT 16/03 A3011 RMK A01 T01580033  RH  043%=      5-min Rain = 0
KJU1 111625Z 04022KT 16/03 A3011 RMK A01 T01580030  RH  042%=      5-min Rain = 0
KJU1 111626Z 04020G26KT 16/03 A3011 RMK A01 T01580029  RH  042%=      5-min Rain = 0
KJU1 111627Z 04017KT 16/03 A3011 RMK A01 T01580029  RH  042%=      5-min Rain = 0
KJU1 111628Z 04016G22KT 16/03 A3011 RMK A01 T01580030  RH  042%=      5-min Rain = 0
KJU1 111629Z 03015KT 16/03 A3011 RMK A01 T01580030  RH  042%=      5-min Rain = 0
KJU1 111630Z 03015KT 16/03 A3011 RMK A01 T01580030  RH  042%=      5-min Rain = 0
KJU1 111631Z 03018KT 16/03 A3011 RMK A01 T01580029  RH  042%=      5-min Rain = 0
KJU1 111632Z 03016G22KT 16/03 A3011 RMK A01 T01580028  RH  042%=      5-min Rain = 0
KJU1 111633Z 03015KT 16/03 A3011 RMK A01 T01580028  RH  042%=      5-min Rain = 0
KJU1 111634Z 03017G22KT 16/03 A3011 RMK A01 T01580029  RH  042%=      5-min Rain = 0
KJU1 111635Z 03016KT 16/03 A3011 RMK A01 T01590028  RH  041%=      5-min Rain = 0
KJU1 111636Z 03016KT 16/03 A3011 RMK A01 T01590028  RH  041%=      5-min Rain = 0
KJU1 111637Z 02016G21KT 16/03 A3011 RMK A01 T01590028  RH  041%=      5-min Rain = 0
KJU1 111638Z 03018G25KT 16/03 A3011 RMK A01 T01590026  RH  041%=      5-min Rain = 0
KJU1 111639Z 02019G24KT 16/03 A3011 RMK A01 T01590025  RH  041%=      5-min Rain = 0
KJU1 111640Z 03017G24KT 16/03 A3011 RMK A01 T01590025  RH  040%=      5-min Rain = 0
KJU1 111641Z 03016G21KT 16/03 A3011 RMK A01 T01590025  RH  040%=      5-min Rain = 0
KJU1 111642Z 02014G19KT 16/03 A3011 RMK A01 T01590025  RH  040%=      5-min Rain = 0
KJU1 111643Z 03017KT 16/03 A3011 RMK A01 T01600025  RH  040%=      5-min Rain = 0
KJU1 111644Z 03016G21KT 16/02 A3011 RMK A01 T01600024  RH  040%=      5-min Rain = 0
KJU1 111645Z 03019KT 16/02 A3011 RMK A01 T01600024  RH  040%=      5-min Rain = 0
KJU1 111646Z 03015KT 16/02 A3011 RMK A01 T01600024  RH  040%=      5-min Rain = 0
KJU1 111647Z 02020KT 16/02 A3011 RMK A01 T01600022  RH  040%=      5-min Rain = 0
KJU1 111648Z 03016G21KT 16/02 A3011 RMK A01 T01590021  RH  039%=      5-min Rain = 0
KJU1 111649Z 03015G21KT 16/02 A3011 RMK A01 T01590022  RH  040%=      5-min Rain = 0
KJU1 111650Z 02021G27KT 16/02 A3012 RMK A01 T01590021  RH  039%=      5-min Rain = 0
KJU1 111651Z 02019G24KT 16/02 A3012 RMK A01 T01590021  RH  039%=      5-min Rain = 0
KJU1 111652Z 03012G17KT 16/02 A3011 RMK A01 T01590020  RH  039%=      5-min Rain = 0
KJU1 111653Z 03016G21KT 16/02 A3011 RMK A01 T01600021  RH  039%=      5-min Rain = 0
KJU1 111654Z 02015KT 16/02 A3011 RMK A01 T01600021  RH  039%=      5-min Rain = 0
KJU1 111655Z 03015KT 16/02 A3011 RMK A01 T01600021  RH  039%=      5-min Rain = 0
KJU1 111656Z 04015G20KT 16/02 A3011 RMK A01 T01610021  RH  039%=      5-min Rain = 0
KJU1 111657Z 03016G21KT 16/02 A3011 RMK A01 T01610021  RH  039%=      5-min Rain = 0
KJU1 111658Z 03014KT 16/02 A3011 RMK A01 T01620022  RH  039%=      5-min Rain = 0
KJU1 111659Z 03013KT 16/02 A3011 RMK A01 T01630021  RH  038%=      5-min Rain = 0
KJU1 111700Z 03015G23KT 16/02 A3012 RMK A01 T01630020  RH  038%=      5-min Rain = 0
KJU1 111701Z 03016G21KT 16/02 A3012 RMK A01 T01630020  RH  038%=      5-min Rain = 0
KJU1 111702Z 03014G20KT 16/02 A3012 RMK A01 T01630021  RH  038%=      5-min Rain = 0
KJU1 111703Z 02015KT 16/02 A3012 RMK A01 T01640021  RH  038%=      5-min Rain = 0
KJU1 111704Z 03015KT 16/02 A3012 RMK A01 T01640021  RH  038%=      5-min Rain = 0
KJU1 111705Z 02014KT 16/02 A3012 RMK A01 T01640020  RH  038%=      5-min Rain = 0
KJU1 111706Z 02014KT 16/02 A3012 RMK A01 T01640020  RH  038%=      5-min Rain = 0
KJU1 111707Z 02017KT 16/02 A3012 RMK A01 T01640019  RH  037%=      5-min Rain = 0
KJU1 111708Z 02017G26KT 16/02 A3012 RMK A01 T01640017  RH  037%=      5-min Rain = 0
KJU1 111709Z 02015G21KT 16/02 A3012 RMK A01 T01630016  RH  037%=      5-min Rain = 0
KJU1 111710Z 02020G26KT 16/02 A3013 RMK A01 T01630016  RH  037%=      5-min Rain = 0
KJU1 111711Z 03020G25KT 16/02 A3013 RMK A01 T01640016  RH  037%=      5-min Rain = 0
KJU1 111712Z 03015G22KT 16/02 A3013 RMK A01 T01640015  RH  037%=      5-min Rain = 0
KJU1 111713Z 02011KT 16/02 A3012 RMK A01 T01640017  RH  037%=      5-min Rain = 0
KJU1 111714Z 02012KT 17/02 A3012 RMK A01 T01650017  RH  037%=      5-min Rain = 0
KJU1 111715Z 02014KT 17/02 A3012 RMK A01 T01660017  RH  037%=      5-min Rain = 0
KJU1 111716Z 02014G19KT 17/02 A3013 RMK A01 T01660017  RH  037%=      5-min Rain = 0
KJU1 111717Z 03010KT 17/02 A3012 RMK A01 T01660017  RH  037%=      5-min Rain = 0
KJU1 111718Z 03012KT 17/02 A3013 RMK A01 T01670018  RH  037%=      5-min Rain = 0
KJU1 111719Z 03011KT 17/02 A3013 RMK A01 T01670018  RH  037%=      5-min Rain = 0
KJU1 111720Z 03011KT 17/02 A3013 RMK A01 T01680020  RH  037%=      5-min Rain = 0
KJU1 111721Z 03013G18KT 17/02 A3013 RMK A01 T01690019  RH  037%=      5-min Rain = 0
KJU1 111722Z 03013KT 17/02 A3013 RMK A01 T01690018  RH  036%=      5-min Rain = 0
KJU1 111723Z 01014KT 17/02 A3013 RMK A01 T01690017  RH  036%=      5-min Rain = 0
KJU1 111724Z 01015G21KT 17/01 A3013 RMK A01 T01690014  RH  035%=      5-min Rain = 0
KJU1 111725Z 01014G19KT 17/01 A3013 RMK A01 T01680013  RH  035%=      5-min Rain = 0
KJU1 111726Z 02015G20KT 17/01 A3013 RMK A01 T01680014  RH  035%=      5-min Rain = 0
KJU1 111727Z 01014G21KT 17/01 A3013 RMK A01 T01680014  RH  035%=      5-min Rain = 0
KJU1 111728Z 02013G18KT 17/01 A3013 RMK A01 T01690014  RH  035%=      5-min Rain = 0
KJU1 111729Z 02017KT 17/02 A3013 RMK A01 T01700015  RH  035%=      5-min Rain = 0
KJU1 111730Z 02018KT 17/01 A3013 RMK A01 T01690012  RH  035%=      5-min Rain = 0
KJU1 111731Z 03018KT 17/01 A3013 RMK A01 T01690010  RH  034%=      5-min Rain = 0
KJU1 111732Z 03014G19KT 17/01 A3013 RMK A01 T01680011  RH  034%=      5-min Rain = 0
KJU1 111733Z 03015G20KT 17/01 A3013 RMK A01 T01680011  RH  035%=      5-min Rain = 0
KJU1 111734Z 03012KT 17/01 A3013 RMK A01 T01690012  RH  035%=      5-min Rain = 0
KJU1 111735Z 03014G20KT 17/02 A3013 RMK A01 T01700015  RH  035%=      5-min Rain = 0
KJU1 111736Z 03017G22KT 17/01 A3013 RMK A01 T01710013  RH  034%=      5-min Rain = 0
KJU1 111737Z 01010KT 17/01 A3013 RMK A01 T01720013  RH  034%=      5-min Rain = 0
KJU1 111738Z 02017KT 17/01 A3013 RMK A01 T01720014  RH  034%=      5-min Rain = 0
KJU1 111739Z 02018KT 17/01 A3013 RMK A01 T01720011  RH  034%=      5-min Rain = 0
KJU1 111740Z 02016KT 17/01 A3013 RMK A01 T01710011  RH  034%=      5-min Rain = 0
KJU1 111741Z 02016G21KT 17/01 A3013 RMK A01 T01710010  RH  034%=      5-min Rain = 0
KJU1 111742Z 03016KT 17/01 A3013 RMK A01 T01710012  RH  034%=      5-min Rain = 0
KJU1 111743Z 02016KT 17/01 A3013 RMK A01 T01720013  RH  034%=      5-min Rain = 0
KJU1 111744Z 01018KT 17/01 A3013 RMK A01 T01730013  RH  034%=      5-min Rain = 0
KJU1 111745Z 02018KT 17/01 A3013 RMK A01 T01730011  RH  034%=      5-min Rain = 0
KJU1 111746Z 03014KT 17/01 A3013 RMK A01 T01720013  RH  034%=      5-min Rain = 0
KJU1 111747Z 03014G19KT 17/02 A3013 RMK A01 T01740015  RH  034%=      5-min Rain = 0
KJU1 111748Z 02012KT 18/02 A3013 RMK A01 T01750016  RH  034%=      5-min Rain = 0
KJU1 111749Z 03013G19KT 18/02 A3013 RMK A01 T01760018  RH  034%=      5-min Rain = 0
KJU1 111750Z 01011KT 18/02 A3013 RMK A01 T01780018  RH  034%=      5-min Rain = 0
KJU1 111751Z 02010KT 18/02 A3013 RMK A01 T01780018  RH  034%=      5-min Rain = 0
KJU1 111752Z 03015G21KT 18/02 A3013 RMK A01 T01790018  RH  034%=      5-min Rain = 0
KJU1 111753Z 01019KT 18/02 A3013 RMK A01 T01790015  RH  033%=      5-min Rain = 0
KJU1 111754Z 02016G21KT 18/01 A3013 RMK A01 T01770012  RH  033%=      5-min Rain = 0
KJU1 111755Z 00013G20KT 18/01 A3013 RMK A01 T01750011  RH  033%=      5-min Rain = 0
KJU1 111756Z 02016G21KT 17/01 A3013 RMK A01 T01740012  RH  033%=      5-min Rain = 0
KJU1 111757Z 02017G22KT 18/01 A3013 RMK A01 T01750012  RH  033%=      5-min Rain = 0
KJU1 111758Z 02020G25KT 18/01 A3013 RMK A01 T01750009  RH  033%=      5-min Rain = 0
KJU1 111759Z 02017G25KT 17/01 A3013 RMK A01 T01740008  RH  032%=      5-min Rain = 0
KJU1 111800Z 02013G18KT 17/01 A3013 RMK A01 T01740008  RH  033%=      5-min Rain = 0
KJU1 111801Z 03019G24KT 17/01 A3013 RMK A01 T01740008  RH  033%=      5-min Rain = 0
KJU1 111802Z 02018KT 17/01 A3013 RMK A01 T01730006  RH  032%=      5-min Rain = 0
KJU1 111803Z 03019KT 17/01 A3013 RMK A01 T01730007  RH  032%=      5-min Rain = 0
KJU1 111804Z 04015KT 17/01 A3013 RMK A01 T01740009  RH  033%=      5-min Rain = 0
KJU1 111805Z 03012KT 18/01 A3013 RMK A01 T01750010  RH  033%=      5-min Rain = 0
KJU1 111806Z 03013KT 18/01 A3013 RMK A01 T01760011  RH  033%=      5-min Rain = 0
KJU1 111807Z 02012KT 18/01 A3013 RMK A01 T01760009  RH  033%=      5-min Rain = 0
KJU1 111808Z 01009KT 18/01 A3013 RMK A01 T01760011  RH  033%=      5-min Rain = 0
KJU1 111809Z 02015G20KT 18/01 A3014 RMK A01 T01770012  RH  033%=      5-min Rain = 0
KJU1 111810Z 02017G22KT 18/01 A3014 RMK A01 T01770009  RH  032%=      5-min Rain = 0
KJU1 111811Z 01015KT 18/01 A3014 RMK A01 T01760007  RH  032%=      5-min Rain = 0
KJU1 111812Z 02020G25KT 17/01 A3014 RMK A01 T01740005  RH  032%=      5-min Rain = 0
KJU1 111813Z 02018KT 17/00 A3014 RMK A01 T01730004  RH  032%=      5-min Rain = 0
KJU1 111814Z 04017KT 17/01 A3014 RMK A01 T01730005  RH  032%=      5-min Rain = 0
KJU1 111815Z 03018KT 17/01 A3014 RMK A01 T01730005  RH  032%=      5-min Rain = 0
KJU1 111816Z 03016KT 17/01 A3014 RMK A01 T01730006  RH  032%=      5-min Rain = 0
KJU1 111817Z 03014KT 17/01 A3014 RMK A01 T01730006  RH  032%=      5-min Rain = 0
KJU1 111818Z 02012KT 17/01 A3014 RMK A01 T01740010  RH  033%=      5-min Rain = 0
KJU1 111819Z 02014KT 18/01 A3014 RMK A01 T01750009  RH  032%=      5-min Rain = 0
KJU1 111820Z 02015KT 18/01 A3014 RMK A01 T01750007  RH  032%=      5-min Rain = 0
KJU1 111821Z 01015G20KT 17/01 A3014 RMK A01 T01740007  RH  032%=      5-min Rain = 0
KJU1 111822Z 01016G21KT 17/01 A3014 RMK A01 T01740006  RH  032%=      5-min Rain = 0
KJU1 111823Z 01017KT 17/00 A3014 RMK A01 T01730004  RH  032%=      5-min Rain = 0
KJU1 111824Z 01018KT 17/00 A3014 RMK A01 T01720004  RH  032%=      5-min Rain = 0
KJU1 111825Z 01012G18KT 17/00 A3014 RMK A01 T01720004  RH  032%=      5-min Rain = 0
KJU1 111826Z 02011KT 17/01 A3014 RMK A01 T01720006  RH  033%=      5-min Rain = 0
KJU1 111827Z 02012KT 17/01 A3014 RMK A01 T01730007  RH  033%=      5-min Rain = 0
KJU1 111828Z 02012KT 17/01 A3014 RMK A01 T01730007  RH  033%=      5-min Rain = 0
KJU1 111829Z 01012KT 17/01 A3014 RMK A01 T01720006  RH  032%=      5-min Rain = 0
KJU1 111830Z 01012KT 17/01 A3014 RMK A01 T01710006  RH  033%=      5-min Rain = 0
KJU1 111831Z 02011KT 17/01 A3014 RMK A01 T01710007  RH  033%=      5-min Rain = 0
KJU1 111832Z 36011G17KT 17/01 A3014 RMK A01 T01710008  RH  033%=      5-min Rain = 0
KJU1 111833Z 01010KT 17/01 A3014 RMK A01 T01710009  RH  033%=      5-min Rain = 0
KJU1 111834Z 00012KT 17/01 A3014 RMK A01 T01720009  RH  033%=      5-min Rain = 0
KJU1 111835Z 36010G15KT 17/01 A3014 RMK A01 T01710009  RH  033%=      5-min Rain = 0
KJU1 111836Z 36013KT 17/01 A3014 RMK A01 T01710009  RH  033%=      5-min Rain = 0
KJU1 111837Z 00016G22KT 17/01 A3014 RMK A01 T01700007  RH  033%=      5-min Rain = 0
KJU1 111838Z 01012KT 17/01 A3014 RMK A01 T01690007  RH  033%=      5-min Rain = 0
KJU1 111839Z 00014G20KT 17/01 A3014 RMK A01 T01690007  RH  033%=      5-min Rain = 0
KJU1 111840Z 02013G18KT 17/01 A3014 RMK A01 T01680005  RH  033%=      5-min Rain = 0
KJU1 111841Z 02015KT 17/00 A3014 RMK A01 T01670004  RH  033%=      5-min Rain = 0
KJU1 111842Z 02014KT 17/00 A3014 RMK A01 T01660004  RH  033%=      5-min Rain = 0
KJU1 111843Z 02012KT 17/00 A3014 RMK A01 T01660004  RH  033%=      5-min Rain = 0
KJU1 111844Z 01009KT 17/01 A3014 RMK A01 T01660005  RH  034%=      5-min Rain = 0
KJU1 111845Z 35012KT 17/01 A3014 RMK A01 T01660006  RH  034%=      5-min Rain = 0
KJU1 111846Z 35016G21KT 17/00 A3014 RMK A01 T01660004  RH  033%=      5-min Rain = 0
KJU1 111847Z 35017G22KT 17/00 A3014 RMK A01 T01650001  RH  033%=      5-min Rain = 0
KJU1 111848Z 00016KT 16/00 A3014 RMK A01 T016300-0  RH  033%=      5-min Rain = 0
KJU1 111849Z 01014G19KT 16/00 A3014 RMK A01 T016300-0  RH  033%=      5-min Rain = 0
KJU1 111850Z 00009KT 16/00 A3014 RMK A01 T01630000  RH  033%=      5-min Rain = 0
KJU1 111851Z 00010G15KT 16/00 A3014 RMK A01 T016300-0  RH  033%=      5-min Rain = 0
KJU1 111852Z 00013G19KT 16/M00 A3014 RMK A01 T01631002  RH  033%=      5-min Rain = 0
KJU1 111853Z 36013G18KT 16/M01 A3014 RMK A01 T01621005  RH  032%=      5-min Rain = 0
KJU1 111854Z 35013KT 16/M01 A3014 RMK A01 T01611006  RH  032%=      5-min Rain = 0
KJU1 111855Z 34015KT 16/M01 A3014 RMK A01 T01621005  RH  032%=      5-min Rain = 0
KJU1 111856Z 35016KT 16/M01 A3014 RMK A01 T01611007  RH  032%=      5-min Rain = 0
KJU1 111857Z 36015KT 16/M01 A3014 RMK A01 T01611008  RH  032%=      5-min Rain = 0
KJU1 111858Z 01009KT 16/M01 A3014 RMK A01 T01611007  RH  032%=      5-min Rain = 0
KJU1 111859Z 02016KT 16/M01 A3014 RMK A01 T01611006  RH  032%=      5-min Rain = 0
KJU1 111900Z 02015KT 16/M01 A3014 RMK A01 T01611008  RH  031%=      5-min Rain = 0
KJU1 111901Z 01017G24KT 16/M01 A3014 RMK A01 T01611009  RH  031%=      5-min Rain = 0
KJU1 111902Z 01016G21KT 16/M01 A3014 RMK A01 T01601011  RH  031%=      5-min Rain = 0
KJU1 111903Z 02012G17KT 16/M01 A3014 RMK A01 T01601010  RH  031%=      5-min Rain = 0
KJU1 111904Z 02013KT 16/M01 A3014 RMK A01 T01601009  RH  031%=      5-min Rain = 0
KJU1 111905Z 01014G19KT 16/M01 A3014 RMK A01 T01611009  RH  031%=      5-min Rain = 0
KJU1 111906Z 02013G22KT 16/M01 A3014 RMK A01 T01611010  RH  031%=      5-min Rain = 0
KJU1 111907Z 01018G24KT 16/M01 A3014 RMK A01 T01611012  RH  031%=      5-min Rain = 0
KJU1 111908Z 02014KT 16/M01 A3014 RMK A01 T01601013  RH  031%=      5-min Rain = 0
KJU1 111909Z 01008KT 16/M01 A3014 RMK A01 T01601011  RH  031%=      5-min Rain = 0
KJU1 111910Z 01012KT 16/M01 A3014 RMK A01 T01611009  RH  031%=      5-min Rain = 0
KJU1 111911Z 01014KT 16/M01 A3014 RMK A01 T01621009  RH  031%=      5-min Rain = 0
KJU1 111912Z 01012KT 16/M01 A3014 RMK A01 T01621011  RH  031%=      5-min Rain = 0
KJU1 111913Z 01011KT 16/M01 A3014 RMK A01 T01621011  RH  031%=      5-min Rain = 0
KJU1 111914Z 02009KT 16/M01 A3014 RMK A01 T01611011  RH  031%=      5-min Rain = 0
KJU1 111915Z 02013KT 16/M01 A3014 RMK A01 T01621011  RH  031%=      5-min Rain = 0
KJU1 111916Z 01012KT 16/M01 A3014 RMK A01 T01621013  RH  030%=      5-min Rain = 0
KJU1 111917Z 02013G18KT 16/M01 A3014 RMK A01 T01621013  RH  030%=      5-min Rain = 0
KJU1 111918Z 02015G21KT 16/M02 A3014 RMK A01 T01621015  RH  030%=      5-min Rain = 0
KJU1 111919Z 03017KT 16/M02 A3014 RMK A01 T01611015  RH  030%=      5-min Rain = 0
KJU1 111920Z 02016KT 16/M02 A3015 RMK A01 T01621015  RH  030%=      5-min Rain = 0
KJU1 111921Z 02016G22KT 16/M02 A3015 RMK A01 T01621015  RH  030%=      5-min Rain = 0
KJU1 111922Z 01015G21KT 16/M02 A3015 RMK A01 T01611017  RH  030%=      5-min Rain = 0
KJU1 111923Z 01016KT 16/M02 A3015 RMK A01 T01601018  RH  029%=      5-min Rain = 0
KJU1 111924Z 01014G19KT 16/M02 A3015 RMK A01 T01601020  RH  029%=      5-min Rain = 0
KJU1 111925Z 01010KT 16/M02 A3015 RMK A01 T01591020  RH  029%=      5-min Rain = 0
KJU1 111926Z 03012KT 16/M02 A3014 RMK A01 T01591019  RH  029%=      5-min Rain = 0
KJU1 111927Z 03012KT 16/M02 A3014 RMK A01 T01611017  RH  029%=      5-min Rain = 0
KJU1 111928Z 03015G20KT 16/M02 A3014 RMK A01 T01621019  RH  029%=      5-min Rain = 0
KJU1 111929Z 02015KT 16/M02 A3014 RMK A01 T01621020  RH  029%=      5-min Rain = 0
KJU1 111930Z 01013G20KT 16/M02 A3014 RMK A01 T01611021  RH  029%=      5-min Rain = 0
KJU1 111931Z 02016G21KT 16/M02 A3014 RMK A01 T01611021  RH  029%=      5-min Rain = 0
KJU1 111932Z 02014KT 16/M02 A3014 RMK A01 T01611021  RH  029%=      5-min Rain = 0
KJU1 111933Z 02014KT 16/M02 A3014 RMK A01 T01611021  RH  029%=      5-min Rain = 0
KJU1 111934Z 01013KT 16/M02 A3014 RMK A01 T01611022  RH  029%=      5-min Rain = 0
KJU1 111935Z 01016G21KT 16/M02 A3014 RMK A01 T01611021  RH  029%=      5-min Rain = 0
KJU1 111936Z 01015G20KT 16/M02 A3014 RMK A01 T01611022  RH  028%=      5-min Rain = 0
KJU1 111937Z 01012KT 16/M02 A3014 RMK A01 T01611023  RH  028%=      5-min Rain = 0
KJU1 111938Z 01011KT 16/M02 A3014 RMK A01 T01611021  RH  029%=      5-min Rain = 0
KJU1 111939Z 02014KT 16/M02 A3014 RMK A01 T01621020  RH  029%=      5-min Rain = 0
KJU1 111940Z 02013KT 16/M02 A3014 RMK A01 T01611020  RH  029%=      5-min Rain = 0
KJU1 111941Z 02013G19KT 16/M02 A3014 RMK A01 T01621019  RH  029%=      5-min Rain = 0
KJU1 111942Z 02013KT 16/M02 A3014 RMK A01 T01631016  RH  029%=      5-min Rain = 0
KJU1 111943Z 02013G18KT 16/M02 A3014 RMK A01 T01631017  RH  029%=      5-min Rain = 0
KJU1 111944Z 03013KT 16/M02 A3014 RMK A01 T01641015  RH  029%=      5-min Rain = 0
KJU1 111945Z 02014KT 17/M01 A3014 RMK A01 T01651014  RH  029%=      5-min Rain = 0
KJU1 111946Z 02014KT 17/M02 A3014 RMK A01 T01651016  RH  029%=      5-min Rain = 0
KJU1 111947Z 02012KT 16/M02 A3014 RMK A01 T01641016  RH  029%=      5-min Rain = 0
KJU1 111948Z 01011KT 16/M02 A3014 RMK A01 T01641015  RH  029%=      5-min Rain = 0
KJU1 111949Z 35010G15KT 17/M02 A3014 RMK A01 T01651015  RH  029%=      5-min Rain = 0
KJU1 111950Z 35013KT 17/M01 A3014 RMK A01 T01661014  RH  029%=      5-min Rain = 0
KJU1 111951Z 02010G15KT 17/M02 A3014 RMK A01 T01661016  RH  029%=      5-min Rain = 0
KJU1 111952Z 02013KT 17/M01 A3015 RMK A01 T01671014  RH  029%=      5-min Rain = 0
KJU1 111953Z 01013KT 17/M02 A3014 RMK A01 T01671018  RH  028%=      5-min Rain = 0
KJU1 111954Z 01010G15KT 17/M02 A3014 RMK A01 T01661019  RH  028%=      5-min Rain = 0
KJU1 111955Z 03013KT 17/M02 A3015 RMK A01 T01661020  RH  028%=      5-min Rain = 0
KJU1 111956Z 03015KT 17/M02 A3015 RMK A01 T01651022  RH  028%=      5-min Rain = 0
KJU1 111957Z 02016KT 16/M02 A3014 RMK A01 T01641022  RH  028%=      5-min Rain = 0
KJU1 111958Z 02014G19KT 16/M02 A3014 RMK A01 T01641023  RH  028%=      5-min Rain = 0
KJU1 111959Z 03015KT 16/M02 A3014 RMK A01 T01641022  RH  028%=      5-min Rain = 0
KJU1 112000Z 02013KT 16/M02 A3014 RMK A01 T01631022  RH  028%=      5-min Rain = 0
KJU1 112001Z 01013KT 16/M02 A3014 RMK A01 T01631022  RH  028%=      5-min Rain = 0
KJU1 112002Z 01010KT 16/M02 A3014 RMK A01 T01631020  RH  028%=      5-min Rain = 0
KJU1 112003Z 01013KT 16/M02 A3014 RMK A01 T01631020  RH  029%=      5-min Rain = 0
KJU1 112004Z 02011KT 16/M02 A3014 RMK A01 T01631020  RH  028%=      5-min Rain = 0
KJU1 112005Z 02009KT 16/M02 A3014 RMK A01 T01641017  RH  029%=      5-min Rain = 0
KJU1 112006Z 02012KT 17/M02 A3014 RMK A01 T01651017  RH  029%=      5-min Rain = 0
KJU1 112007Z 02012KT 17/M02 A3014 RMK A01 T01651016  RH  029%=      5-min Rain = 0
KJU1 112008Z 02009KT 17/M02 A3014 RMK A01 T01651017  RH  029%=      5-min Rain = 0
KJU1 112009Z 01008KT 17/M02 A3014 RMK A01 T01651016  RH  029%=      5-min Rain = 0
KJU1 112010Z 00012KT 17/M02 A3014 RMK A01 T01661015  RH  029%=      5-min Rain = 0
KJU1 112011Z 01011G16KT 17/M02 A3014 RMK A01 T01661017  RH  029%=      5-min Rain = 0
KJU1 112012Z 01010KT 17/M02 A3014 RMK A01 T01651019  RH  028%=      5-min Rain = 0
KJU1 112013Z 01010G16KT 17/M02 A3014 RMK A01 T01651017  RH  029%=      5-min Rain = 0
KJU1 112014Z 01011KT 17/M02 A3014 RMK A01 T01651018  RH  029%=      5-min Rain = 0
KJU1 112015Z 01013KT 17/M02 A3014 RMK A01 T01651019  RH  028%=      5-min Rain = 0
KJU1 112016Z 01009KT 17/M02 A3014 RMK A01 T01651019  RH  028%=      5-min Rain = 0
KJU1 112017Z 00010KT 17/M02 A3014 RMK A01 T01651018  RH  029%=      5-min Rain = 0
KJU1 112018Z 01009KT 17/M02 A3014 RMK A01 T01661017  RH  029%=      5-min Rain = 0
KJU1 112019Z 01006KT 17/M02 A3014 RMK A01 T01661016  RH  029%=      5-min Rain = 0
KJU1 112020Z 01006KT 17/M01 A3014 RMK A01 T01681014  RH  029%=      5-min Rain = 0
KJU1 112021Z 00007KT 17/M01 A3014 RMK A01 T01691013  RH  029%=      5-min Rain = 0
KJU1 112022Z 01008KT 17/M01 A3014 RMK A01 T01701013  RH  029%=      5-min Rain = 0
KJU1 112023Z 00008G14KT 17/M01 A3014 RMK A01 T01701013  RH  029%=      5-min Rain = 0
KJU1 112024Z 00009KT 17/M01 A3013 RMK A01 T01711014  RH  028%=      5-min Rain = 0
KJU1 112025Z 02008KT 17/M01 A3014 RMK A01 T01711012  RH  029%=      5-min Rain = 0
KJU1 112026Z 01009KT 17/M01 A3013 RMK A01 T01721011  RH  029%=      5-min Rain = 0
KJU1 112027Z 01009G14KT 17/M01 A3013 RMK A01 T01721011  RH  029%=      5-min Rain = 0
KJU1 112028Z 02011KT 17/M01 A3013 RMK A01 T01731013  RH  028%=      5-min Rain = 0
KJU1 112029Z 01010KT 17/M01 A3013 RMK A01 T01721013  RH  028%=      5-min Rain = 0
KJU1 112030Z 01010KT 17/M01 A3013 RMK A01 T01721014  RH  028%=      5-min Rain = 0
KJU1 112031Z 00008KT 17/M01 A3013 RMK A01 T01721014  RH  028%=      5-min Rain = 0
KJU1 112032Z 36007KT 17/M01 A3013 RMK A01 T01721013  RH  028%=      5-min Rain = 0
KJU1 112033Z 36009KT 17/M01 A3013 RMK A01 T01741010  RH  029%=      5-min Rain = 0
KJU1 112034Z 36010G15KT 18/M01 A3013 RMK A01 T01751011  RH  028%=      5-min Rain = 0
KJU1 112035Z 00013KT 18/M01 A3013 RMK A01 T01751013  RH  028%=      5-min Rain = 0
KJU1 112036Z 36010G15KT 17/M02 A3013 RMK A01 T01741015  RH  028%=      5-min Rain = 0
KJU1 112037Z 36012G19KT 17/M02 A3013 RMK A01 T01731017  RH  027%=      5-min Rain = 0
KJU1 112038Z 01011KT 17/M02 A3013 RMK A01 T01731018  RH  027%=      5-min Rain = 0
KJU1 112039Z 02012KT 17/M02 A3013 RMK A01 T01731019  RH  027%=      5-min Rain = 0
KJU1 112040Z 01011G16KT 17/M02 A3013 RMK A01 T01721019  RH  027%=      5-min Rain = 0
KJU1 112041Z 01009KT 17/M02 A3013 RMK A01 T01721017  RH  027%=      5-min Rain = 0
KJU1 112042Z 01009KT 17/M02 A3013 RMK A01 T01731017  RH  027%=      5-min Rain = 0
KJU1 112043Z 36011G16KT 17/M02 A3013 RMK A01 T01741018  RH  027%=      5-min Rain = 0
KJU1 112044Z 03009G14KT 17/M02 A3013 RMK A01 T01741017  RH  027%=      5-min Rain = 0
KJU1 112045Z 00010G18KT 18/M02 A3013 RMK A01 T01751016  RH  027%=      5-min Rain = 0
KJU1 112046Z 00013KT 18/M02 A3013 RMK A01 T01751021  RH  026%=      5-min Rain = 0
KJU1 112047Z 03010G17KT 17/M02 A3013 RMK A01 T01741022  RH  026%=      5-min Rain = 0
KJU1 112048Z 02013KT 17/M02 A3013 RMK A01 T01741020  RH  027%=      5-min Rain = 0
KJU1 112049Z 01015KT 17/M02 A3013 RMK A01 T01741020  RH  027%=      5-min Rain = 0
KJU1 112050Z 01011KT 17/M02 A3013 RMK A01 T01731021  RH  027%=      5-min Rain = 0
KJU1 112051Z 01010KT 17/M02 A3014 RMK A01 T01721019  RH  027%=      5-min Rain = 0
KJU1 112052Z 01012KT 17/M02 A3014 RMK A01 T01721019  RH  027%=      5-min Rain = 0
KJU1 112053Z 01013KT 17/M02 A3014 RMK A01 T01721018  RH  027%=      5-min Rain = 0
KJU1 112054Z 01012G17KT 17/M02 A3014 RMK A01 T01731020  RH  027%=      5-min Rain = 0
KJU1 112055Z 01014G20KT 17/M02 A3014 RMK A01 T01721019  RH  027%=      5-min Rain = 0
KJU1 112056Z 35014KT 17/M02 A3014 RMK A01 T01721019  RH  027%=      5-min Rain = 0
KJU1 112057Z 01011KT 17/M02 A3014 RMK A01 T01721020  RH  027%=      5-min Rain = 0
KJU1 112058Z 36012KT 17/M02 A3014 RMK A01 T01721020  RH  027%=      5-min Rain = 0
KJU1 112059Z 36013KT 17/M02 A3014 RMK A01 T01721020  RH  027%=      5-min Rain = 0
KJU1 112100Z 35013G23KT 17/M02 A3014 RMK A01 T01721020  RH  027%=      5-min Rain = 0
KJU1 112101Z 36011G16KT 17/M02 A3015 RMK A01 T01721021  RH  027%=      5-min Rain = 0
KJU1 112102Z 35010G17KT 17/M02 A3014 RMK A01 T01711020  RH  027%=      5-min Rain = 0
KJU1 112103Z 01015KT 17/M02 A3015 RMK A01 T01721021  RH  027%=      5-min Rain = 0
KJU1 112104Z 36014G19KT 17/M02 A3015 RMK A01 T01711024  RH  026%=      5-min Rain = 0
KJU1 112105Z 35012G18KT 17/M03 A3015 RMK A01 T01701025  RH  026%=      5-min Rain = 0
KJU1 112106Z 35012G18KT 17/M02 A3015 RMK A01 T01701024  RH  026%=      5-min Rain = 0
KJU1 112107Z 35012G18KT 17/M03 A3015 RMK A01 T01701025  RH  026%=      5-min Rain = 0
KJU1 112108Z 35012KT 17/M03 A3015 RMK A01 T01701025  RH  026%=      5-min Rain = 0
KJU1 112109Z 01010KT 17/M02 A3015 RMK A01 T01701024  RH  026%=      5-min Rain = 0
KJU1 112110Z 36011KT 17/M02 A3015 RMK A01 T01711023  RH  027%=      5-min Rain = 0
KJU1 112111Z 00012KT 17/M02 A3015 RMK A01 T01711023  RH  026%=      5-min Rain = 0
KJU1 112112Z 36008G13KT 17/M02 A3015 RMK A01 T01711023  RH  026%=      5-min Rain = 0
KJU1 112113Z 35014KT 17/M02 A3015 RMK A01 T01711022  RH  027%=      5-min Rain = 0
KJU1 112114Z 00011KT 17/M02 A3015 RMK A01 T01711023  RH  027%=      5-min Rain = 0
KJU1 112115Z 01011G17KT 17/M02 A3014 RMK A01 T01701023  RH  027%=      5-min Rain = 0
KJU1 112116Z 01012KT 17/M02 A3015 RMK A01 T01701023  RH  027%=      5-min Rain = 0
KJU1 112117Z 01016KT 17/M02 A3015 RMK A01 T01701023  RH  027%=      5-min Rain = 0
KJU1 112118Z 01016KT 17/M03 A3015 RMK A01 T01691025  RH  026%=      5-min Rain = 0
KJU1 112119Z 00013G18KT 17/M03 A3015 RMK A01 T01681026  RH  026%=      5-min Rain = 0
KJU1 112120Z 00011G18KT 17/M03 A3015 RMK A01 T01681026  RH  026%=      5-min Rain = 0
KJU1 112121Z 01009KT 17/M02 A3015 RMK A01 T01691023  RH  027%=      5-min Rain = 0
KJU1 112122Z 36011KT 17/M02 A3015 RMK A01 T01711021  RH  027%=      5-min Rain = 0
KJU1 112123Z 02014KT 17/M02 A3015 RMK A01 T01721024  RH  026%=      5-min Rain = 0
KJU1 112124Z 02014G20KT 17/M03 A3015 RMK A01 T01701028  RH  026%=      5-min Rain = 0
KJU1 112125Z 01014KT 17/M03 A3015 RMK A01 T01691030  RH  025%=      5-min Rain = 0
KJU1 112126Z 02012KT 17/M03 A3015 RMK A01 T01681028  RH  026%=      5-min Rain = 0
KJU1 112127Z 01010G16KT 17/M03 A3015 RMK A01 T01691026  RH  026%=      5-min Rain = 0
KJU1 112128Z 02012G17KT 17/M03 A3015 RMK A01 T01711026  RH  026%=      5-min Rain = 0
KJU1 112129Z 00011G16KT 17/M03 A3015 RMK A01 T01711028  RH  026%=      5-min Rain = 0
KJU1 112130Z 01013G20KT 17/M03 A3015 RMK A01 T01711029  RH  025%=      5-min Rain = 0
KJU1 112131Z 01011G17KT 17/M03 A3015 RMK A01 T01701032  RH  025%=      5-min Rain = 0
KJU1 112132Z 02010KT 17/M03 A3015 RMK A01 T01691032  RH  025%=      5-min Rain = 0
KJU1 112133Z 02013G18KT 17/M03 A3015 RMK A01 T01701030  RH  025%=      5-min Rain = 0
KJU1 112134Z 01009KT 17/M03 A3015 RMK A01 T01701030  RH  025%=      5-min Rain = 0
KJU1 112135Z 01012G17KT 17/M03 A3015 RMK A01 T01701029  RH  025%=      5-min Rain = 0
KJU1 112136Z 01014KT 17/M03 A3015 RMK A01 T01711030  RH  025%=      5-min Rain = 0
KJU1 112137Z 02014KT 17/M03 A3015 RMK A01 T01701032  RH  025%=      5-min Rain = 0
KJU1 112138Z 02012KT 17/M03 A3015 RMK A01 T01691032  RH  025%=      5-min Rain = 0
KJU1 112139Z 02011KT 17/M03 A3015 RMK A01 T01691030  RH  025%=      5-min Rain = 0
KJU1 112140Z 03015KT 17/M03 A3015 RMK A01 T01701029  RH  026%=      5-min Rain = 0
KJU1 112141Z 02011KT 17/M03 A3015 RMK A01 T01701029  RH  025%=      5-min Rain = 0
KJU1 112142Z 01009KT 17/M03 A3015 RMK A01 T01701027  RH  026%=      5-min Rain = 0
KJU1 112143Z 01008KT 17/M03 A3015 RMK A01 T01711026  RH  026%=      5-min Rain = 0
KJU1 112144Z 01007KT 17/M03 A3015 RMK A01 T01721025  RH  026%=      5-min Rain = 0
KJU1 112145Z 01010KT 17/M02 A3015 RMK A01 T01731024  RH  026%=      5-min Rain = 0
KJU1 112146Z 00008KT 17/M03 A3015 RMK A01 T01731025  RH  026%=      5-min Rain = 0
KJU1 112147Z 35007KT 17/M02 A3015 RMK A01 T01741022  RH  026%=      5-min Rain = 0
KJU1 112148Z 35010KT 18/M02 A3015 RMK A01 T01751022  RH  026%=      5-min Rain = 0
KJU1 112149Z 00011KT 18/M03 A3015 RMK A01 T01751028  RH  025%=      5-min Rain = 0
KJU1 112150Z 01009KT 17/M03 A3015 RMK A01 T01741028  RH  025%=      5-min Rain = 0
KJU1 112151Z 02008G14KT 17/M03 A3015 RMK A01 T01741027  RH  025%=      5-min Rain = 0
KJU1 112152Z 02012KT 17/M03 A3015 RMK A01 T01741033  RH  024%=      5-min Rain = 0
KJU1 112153Z 03015KT 17/M04 A3015 RMK A01 T01741037  RH  023%=      5-min Rain = 0
KJU1 112154Z 01011KT 17/M04 A3015 RMK A01 T01731040  RH  023%=      5-min Rain = 0
KJU1 112155Z 02008KT 17/M04 A3015 RMK A01 T01731040  RH  023%=      5-min Rain = 0
KJU1 112156Z 02012KT 17/M04 A3015 RMK A01 T01731038  RH  023%=      5-min Rain = 0
KJU1 112157Z 02010KT 17/M04 A3015 RMK A01 T01731041  RH  023%=      5-min Rain = 0
KJU1 112158Z 03009KT 17/M04 A3015 RMK A01 T01731039  RH  023%=      5-min Rain = 0
KJU1 112159Z 02010KT 17/M04 A3015 RMK A01 T01731038  RH  023%=      5-min Rain = 0
KJU1 112200Z 03010KT 17/M04 A3015 RMK A01 T01731037  RH  023%=      5-min Rain = 0
KJU1 112201Z 03013KT 17/M04 A3014 RMK A01 T01741037  RH  024%=      5-min Rain = 0
KJU1 112202Z 03011G16KT 17/M04 A3014 RMK A01 T01731036  RH  024%=      5-min Rain = 0
KJU1 112203Z 02011KT 17/M03 A3014 RMK A01 T01741034  RH  024%=      5-min Rain = 0
KJU1 112204Z 02011KT 18/M03 A3014 RMK A01 T01751032  RH  024%=      5-min Rain = 0
KJU1 112205Z 02011KT 18/M03 A3014 RMK A01 T01761029  RH  025%=      5-min Rain = 0
KJU1 112206Z 01009KT 18/M03 A3014 RMK A01 T01781026  RH  025%=      5-min Rain = 0
KJU1 112207Z 01009KT 18/M03 A3014 RMK A01 T01791025  RH  025%=      5-min Rain = 0
KJU1 112208Z 36010KT 18/M03 A3014 RMK A01 T01791025  RH  025%=      5-min Rain = 0
KJU1 112209Z 35011KT 18/M03 A3014 RMK A01 T01781025  RH  025%=      5-min Rain = 0
KJU1 112210Z 00012KT 18/M03 A3014 RMK A01 T01771027  RH  025%=      5-min Rain = 0
KJU1 112211Z 35011KT 18/M03 A3014 RMK A01 T01761028  RH  025%=      5-min Rain = 0
KJU1 112212Z 36011G16KT 18/M03 A3014 RMK A01 T01761025  RH  025%=      5-min Rain = 0
KJU1 112213Z 35013KT 18/M03 A3014 RMK A01 T01761026  RH  025%=      5-min Rain = 0
KJU1 112214Z 35014G20KT 18/M03 A3015 RMK A01 T01761027  RH  025%=      5-min Rain = 0
KJU1 112215Z 01012G18KT 18/M03 A3015 RMK A01 T01761026  RH  025%=      5-min Rain = 0
KJU1 112216Z 02012G18KT 18/M03 A3015 RMK A01 T01761025  RH  025%=      5-min Rain = 0
KJU1 112217Z 36011G16KT 18/M03 A3015 RMK A01 T01761026  RH  025%=      5-min Rain = 0
KJU1 112218Z 01013G20KT 18/M03 A3015 RMK A01 T01761027  RH  025%=      5-min Rain = 0
KJU1 112219Z 00013G19KT 18/M03 A3014 RMK A01 T01761028  RH  025%=      5-min Rain = 0
KJU1 112220Z 01011KT 18/M03 A3014 RMK A01 T01761027  RH  025%=      5-min Rain = 0
KJU1 112221Z 01015G20KT 18/M03 A3014 RMK A01 T01771028  RH  025%=      5-min Rain = 0
KJU1 112222Z 01011KT 18/M03 A3014 RMK A01 T01761030  RH  024%=      5-min Rain = 0
KJU1 112223Z 01014G20KT 18/M03 A3014 RMK A01 T01771030  RH  024%=      5-min Rain = 0
KJU1 112224Z 00011G16KT 18/M03 A3015 RMK A01 T01781032  RH  024%=      5-min Rain = 0
KJU1 112225Z 00013KT 18/M03 A3015 RMK A01 T01791032  RH  024%=      5-min Rain = 0
KJU1 112226Z 36011G16KT 18/M03 A3015 RMK A01 T01791033  RH  023%=      5-min Rain = 0
KJU1 112227Z 01012G18KT 18/M03 A3015 RMK A01 T01791030  RH  024%=      5-min Rain = 0
KJU1 112228Z 01013KT 18/M03 A3015 RMK A01 T01791033  RH  023%=      5-min Rain = 0
KJU1 112229Z 02013KT 18/M03 A3015 RMK A01 T01781033  RH  024%=      5-min Rain = 0
KJU1 112230Z 03010KT 18/M03 A3015 RMK A01 T01771030  RH  024%=      5-min Rain = 0
KJU1 112231Z 02010KT 18/M03 A3015 RMK A01 T01781029  RH  024%=      5-min Rain = 0
KJU1 112232Z 02010KT 18/M03 A3015 RMK A01 T01771030  RH  024%=      5-min Rain = 0
KJU1 112233Z 02009KT 18/M03 A3014 RMK A01 T01771030  RH  024%=      5-min Rain = 0
KJU1 112234Z 00009KT 18/M03 A3015 RMK A01 T01771027  RH  025%=      5-min Rain = 0
KJU1 112235Z 00013G18KT 18/M03 A3015 RMK A01 T01781029  RH  024%=      5-min Rain = 0
KJU1 112236Z 00013KT 18/M03 A3015 RMK A01 T01771033  RH  024%=      5-min Rain = 0
KJU1 112237Z 36014G20KT 18/M03 A3015 RMK A01 T01761034  RH  024%=      5-min Rain = 0
KJU1 112238Z 00016G23KT 18/M04 A3015 RMK A01 T01761037  RH  023%=      5-min Rain = 0
KJU1 112239Z 35016G22KT 18/M04 A3014 RMK A01 T01761040  RH  023%=      5-min Rain = 0
KJU1 112240Z 35013G18KT 18/M04 A3014 RMK A01 T01771039  RH  023%=      5-min Rain = 0
KJU1 112241Z 36012G18KT 18/M04 A3014 RMK A01 T01771040  RH  023%=      5-min Rain = 0
KJU1 112242Z 01013G18KT 18/M04 A3014 RMK A01 T01771042  RH  022%=      5-min Rain = 0
KJU1 112243Z 00015G20KT 18/M05 A3014 RMK A01 T01761046  RH  022%=      5-min Rain = 0
KJU1 112244Z 36014G21KT 18/M05 A3014 RMK A01 T01751049  RH  021%=      5-min Rain = 0
KJU1 112245Z 35013KT 17/M05 A3015 RMK A01 T01741048  RH  022%=      5-min Rain = 0
KJU1 112246Z 00011KT 17/M05 A3015 RMK A01 T01731048  RH  022%=      5-min Rain = 0
KJU1 112247Z 36012G17KT 17/M05 A3015 RMK A01 T01731049  RH  022%=      5-min Rain = 0
KJU1 112248Z 01011KT 17/M05 A3015 RMK A01 T01731050  RH  021%=      5-min Rain = 0
KJU1 112249Z 02011KT 17/M05 A3015 RMK A01 T01731049  RH  021%=      5-min Rain = 0
KJU1 112250Z 01014G20KT 17/M05 A3015 RMK A01 T01731050  RH  021%=      5-min Rain = 0
KJU1 112251Z 02013KT 17/M05 A3015 RMK A01 T01731050  RH  021%=      5-min Rain = 0
KJU1 112252Z 02012KT 17/M05 A3015 RMK A01 T01721052  RH  021%=      5-min Rain = 0
KJU1 112253Z 02013KT 17/M06 A3015 RMK A01 T01711055  RH  021%=      5-min Rain = 0
KJU1 112254Z 02013KT 17/M06 A3015 RMK A01 T01711057  RH  021%=      5-min Rain = 0
KJU1 112255Z 02012KT 17/M06 A3015 RMK A01 T01711056  RH  021%=      5-min Rain = 0
KJU1 112256Z 02011KT 17/M05 A3015 RMK A01 T01711053  RH  021%=      5-min Rain = 0
KJU1 112257Z 01009KT 17/M05 A3015 RMK A01 T01711051  RH  022%=      5-min Rain = 0
KJU1 112258Z 01012KT 17/M05 A3016 RMK A01 T01711049  RH  022%=      5-min Rain = 0
KJU1 112259Z 01013KT 17/M05 A3016 RMK A01 T01711047  RH  022%=      5-min Rain = 0
KJU1 112300Z 01010KT 17/M04 A3016 RMK A01 T01711044  RH  023%=      5-min Rain = 0
KJU1 112301Z 35011KT 17/M04 A3016 RMK A01 T01711042  RH  023%=      5-min Rain = 0
KJU1 112302Z 02013KT 17/M04 A3016 RMK A01 T01711041  RH  023%=      5-min Rain = 0
KJU1 112303Z 02015KT 17/M04 A3016 RMK A01 T01711043  RH  023%=      5-min Rain = 0
KJU1 112304Z 02013KT 17/M04 A3016 RMK A01 T01701043  RH  023%=      5-min Rain = 0
KJU1 112305Z 02012KT 17/M04 A3016 RMK A01 T01701043  RH  023%=      5-min Rain = 0
KJU1 112306Z 03014KT 17/M04 A3016 RMK A01 T01691043  RH  023%=      5-min Rain = 0
KJU1 112307Z 02014KT 17/M04 A3016 RMK A01 T01691044  RH  023%=      5-min Rain = 0
KJU1 112308Z 02015G21KT 17/M05 A3016 RMK A01 T01681045  RH  023%=      5-min Rain = 0
KJU1 112309Z 01012KT 17/M05 A3016 RMK A01 T01681045  RH  023%=      5-min Rain = 0
KJU1 112310Z 02012KT 17/M04 A3016 RMK A01 T01681044  RH  023%=      5-min Rain = 0
KJU1 112311Z 01011KT 17/M04 A3016 RMK A01 T01681043  RH  023%=      5-min Rain = 0
KJU1 112312Z 01010KT 17/M04 A3016 RMK A01 T01681043  RH  023%=      5-min Rain = 0
KJU1 112313Z 02008KT 17/M04 A3017 RMK A01 T01671042  RH  023%=      5-min Rain = 0
KJU1 112314Z 02007KT 17/M04 A3017 RMK A01 T01681040  RH  024%=      5-min Rain = 0
KJU1 112315Z 02008KT 17/M04 A3017 RMK A01 T01681038  RH  024%=      5-min Rain = 0
KJU1 112316Z 01008KT 17/M04 A3016 RMK A01 T01681039  RH  024%=      5-min Rain = 0
KJU1 112317Z 01011KT 17/M04 A3016 RMK A01 T01681038  RH  024%=      5-min Rain = 0
KJU1 112318Z 01009KT 17/M04 A3016 RMK A01 T01691038  RH  024%=      5-min Rain = 0
KJU1 112319Z 01011KT 17/M04 A3016 RMK A01 T01681038  RH  024%=      5-min Rain = 0
KJU1 112320Z 01010KT 17/M04 A3016 RMK A01 T01681038  RH  024%=      5-min Rain = 0
KJU1 112321Z 01010KT 17/M04 A3016 RMK A01 T01681037  RH  024%=      5-min Rain = 0
KJU1 112322Z 01009KT 17/M04 A3016 RMK A01 T01671036  RH  025%=      5-min Rain = 0
KJU1 112323Z 02011KT 17/M03 A3017 RMK A01 T01671034  RH  025%=      5-min Rain = 0
KJU1 112324Z 00010G15KT 17/M04 A3017 RMK A01 T01671035  RH  025%=      5-min Rain = 0
KJU1 112325Z 01010KT 17/M04 A3017 RMK A01 T01671035  RH  025%=      5-min Rain = 0
KJU1 112326Z 01010KT 17/M03 A3017 RMK A01 T01671034  RH  025%=      5-min Rain = 0
KJU1 112327Z 01011KT 17/M03 A3017 RMK A01 T01661034  RH  025%=      5-min Rain = 0
KJU1 112328Z 01009KT 17/M03 A3017 RMK A01 T01661033  RH  025%=      5-min Rain = 0
KJU1 112329Z 02009KT 17/M03 A3017 RMK A01 T01661033  RH  025%=      5-min Rain = 0
KJU1 112330Z 01010G15KT 17/M03 A3017 RMK A01 T01661032  RH  026%=      5-min Rain = 0
KJU1 112331Z 02012KT 17/M03 A3017 RMK A01 T01661030  RH  026%=      5-min Rain = 0
KJU1 112332Z 01010KT 17/M03 A3017 RMK A01 T01661029  RH  026%=      5-min Rain = 0
KJU1 112333Z 01009KT 17/M03 A3017 RMK A01 T01661028  RH  026%=      5-min Rain = 0
KJU1 112334Z 00008G13KT 17/M03 A3017 RMK A01 T01661027  RH  027%=      5-min Rain = 0
KJU1 112335Z 35012KT 17/M03 A3017 RMK A01 T01661026  RH  027%=      5-min Rain = 0
KJU1 112336Z 35011G17KT 17/M03 A3017 RMK A01 T01661025  RH  027%=      5-min Rain = 0
KJU1 112337Z 36012KT 17/M03 A3016 RMK A01 T01651025  RH  027%=      5-min Rain = 0
KJU1 112338Z 35010KT 17/M03 A3016 RMK A01 T01651025  RH  027%=      5-min Rain = 0
KJU1 112339Z 00009KT 17/M02 A3016 RMK A01 T01651024  RH  027%=      5-min Rain = 0
KJU1 112340Z 01009KT 17/M03 A3016 RMK A01 T01651025  RH  027%=      5-min Rain = 0
KJU1 112341Z 00012KT 17/M03 A3016 RMK A01 T01651027  RH  027%=      5-min Rain = 0
KJU1 112342Z 01013G18KT 17/M03 A3017 RMK A01 T01651034  RH  025%=      5-min Rain = 0
KJU1 112343Z 36012KT 16/M04 A3017 RMK A01 T01641036  RH  025%=      5-min Rain = 0
KJU1 112344Z 35014KT 16/M04 A3017 RMK A01 T01631039  RH  025%=      5-min Rain = 0
KJU1 112345Z 36011G16KT 16/M04 A3017 RMK A01 T01631043  RH  024%=      5-min Rain = 0
KJU1 112346Z 00010KT 16/M04 A3017 RMK A01 T01631043  RH  024%=      5-min Rain = 0
KJU1 112347Z 00012KT 16/M04 A3017 RMK A01 T01631043  RH  024%=      5-min Rain = 0
KJU1 112348Z 00009KT 16/M04 A3017 RMK A01 T01631044  RH  024%=      5-min Rain = 0
KJU1 112349Z 01010KT 16/M04 A3017 RMK A01 T01631043  RH  024%=      5-min Rain = 0
KJU1 112350Z 01009KT 16/M04 A3017 RMK A01 T01631044  RH  024%=      5-min Rain = 0
KJU1 112351Z 02010G16KT 16/M05 A3017 RMK A01 T01621047  RH  023%=      5-min Rain = 0
KJU1 112352Z 03010KT 16/M05 A3017 RMK A01 T01621045  RH  024%=      5-min Rain = 0
KJU1 112353Z 02013G18KT 16/M05 A3017 RMK A01 T01631046  RH  023%=      5-min Rain = 0
KJU1 112354Z 03014KT 16/M05 A3017 RMK A01 T01631050  RH  023%=      5-min Rain = 0
KJU1 112355Z 02013KT 16/M05 A3017 RMK A01 T01621049  RH  023%=      5-min Rain = 0
KJU1 112356Z 02011G16KT 16/M05 A3017 RMK A01 T01621049  RH  023%=      5-min Rain = 0
KJU1 112357Z 01012KT 16/M05 A3018 RMK A01 T01621048  RH  023%=      5-min Rain = 0
KJU1 112358Z 36011G18KT 16/M05 A3018 RMK A01 T01611047  RH  024%=      5-min Rain = 0
KJU1 112359Z 01014KT 16/M04 A3018 RMK A01 T01611044  RH  024%=      5-min Rain = 0
KJU1 120000Z 36009G14KT 16/M04 A3018 RMK A01 T01611042  RH  025%=      5-min Rain = 0
KJU1 120001Z 36010KT 16/M04 A3018 RMK A01 T01601040  RH  025%=      5-min Rain = 0
KJU1 120002Z 00011KT 16/M04 A3018 RMK A01 T01611039  RH  025%=      5-min Rain = 0
KJU1 120003Z 01011G16KT 16/M04 A3018 RMK A01 T01601038  RH  025%=      5-min Rain = 0
KJU1 120004Z 01012KT 16/M04 A3018 RMK A01 T01601037  RH  026%=      5-min Rain = 0
KJU1 120005Z 01010KT 16/M04 A3018 RMK A01 T01591036  RH  026%=      5-min Rain = 0
KJU1 120006Z 36010KT 16/M04 A3018 RMK A01 T01591035  RH  026%=      5-min Rain = 0
KJU1 120007Z 36011KT 16/M04 A3018 RMK A01 T01591036  RH  026%=      5-min Rain = 0
KJU1 120008Z 00007KT 16/M04 A3018 RMK A01 T01591036  RH  026%=      5-min Rain = 0
KJU1 120009Z 01007KT 16/M03 A3018 RMK A01 T01591034  RH  026%=      5-min Rain = 0
KJU1 120010Z 01010G15KT 16/M03 A3019 RMK A01 T01591034  RH  026%=      5-min Rain = 0
KJU1 120011Z 01012G17KT 16/M03 A3019 RMK A01 T01591034  RH  026%=      5-min Rain = 0
KJU1 120012Z 01008G13KT 16/M03 A3019 RMK A01 T01591034  RH  026%=      5-min Rain = 0
KJU1 120013Z 01007KT 16/M03 A3019 RMK A01 T01591032  RH  027%=      5-min Rain = 0
KJU1 120014Z 00007KT 16/M03 A3019 RMK A01 T01591031  RH  027%=      5-min Rain = 0
KJU1 120015Z 00007KT 16/M03 A3019 RMK A01 T01591031  RH  027%=      5-min Rain = 0
KJU1 120016Z 01007KT 16/M03 A3018 RMK A01 T01591029  RH  027%=      5-min Rain = 0
KJU1 120017Z 35010KT 16/M03 A3018 RMK A01 T01591029  RH  027%=      5-min Rain = 0
KJU1 120018Z 01009KT 16/M03 A3018 RMK A01 T01581030  RH  027%=      5-min Rain = 0
KJU1 120019Z 36009KT 16/M03 A3018 RMK A01 T01571030  RH  027%=      5-min Rain = 0
KJU1 120020Z 35011G17KT 16/M03 A3019 RMK A01 T01571030  RH  027%=      5-min Rain = 0
KJU1 120021Z 35011KT 16/M03 A3019 RMK A01 T01561032  RH  027%=      5-min Rain = 0
KJU1 120022Z 36012G17KT 16/M03 A3019 RMK A01 T01551034  RH  027%=      5-min Rain = 0
KJU1 120023Z 35010KT 16/M04 A3019 RMK A01 T01551035  RH  027%=      5-min Rain = 0
KJU1 120024Z 36011KT 15/M04 A3019 RMK A01 T01541037  RH  027%=      5-min Rain = 0
KJU1 120025Z 35010G16KT 15/M04 A3019 RMK A01 T01531038  RH  026%=      5-min Rain = 0
KJU1 120026Z 35012KT 15/M04 A3019 RMK A01 T01531039  RH  026%=      5-min Rain = 0
KJU1 120027Z 35012KT 15/M04 A3019 RMK A01 T01521040  RH  026%=      5-min Rain = 0
KJU1 120028Z 34010KT 15/M04 A3019 RMK A01 T01521041  RH  026%=      5-min Rain = 0
KJU1 120029Z 35010KT 15/M04 A3019 RMK A01 T01521041  RH  026%=      5-min Rain = 0
KJU1 120030Z 35010KT 15/M04 A3019 RMK A01 T01511041  RH  026%=      5-min Rain = 0
KJU1 120031Z 00009KT 15/M04 A3019 RMK A01 T01501042  RH  026%=      5-min Rain = 0
KJU1 120032Z 35008KT 15/M04 A3019 RMK A01 T01501041  RH  026%=      5-min Rain = 0
KJU1 120033Z 00008KT 15/M04 A3019 RMK A01 T01501041  RH  026%=      5-min Rain = 0
KJU1 120034Z 36008KT 15/M04 A3019 RMK A01 T01491041  RH  027%=      5-min Rain = 0
KJU1 120035Z 36008KT 15/M04 A302 RMK A01 T01491041  RH  027%=      5-min Rain = 0
KJU1 120036Z 01009KT 15/M04 A302 RMK A01 T01491040  RH  027%=      5-min Rain = 0
KJU1 120037Z 36012KT 15/M04 A302 RMK A01 T01491041  RH  027%=      5-min Rain = 0
KJU1 120038Z 00011KT 15/M04 A302 RMK A01 T01491043  RH  026%=      5-min Rain = 0
KJU1 120039Z 36009KT 15/M04 A302 RMK A01 T01491043  RH  026%=      5-min Rain = 0
KJU1 120040Z 36009KT 15/M04 A302 RMK A01 T01481042  RH  027%=      5-min Rain = 0
KJU1 120041Z 35009KT 15/M04 A302 RMK A01 T01481043  RH  026%=      5-min Rain = 0
KJU1 120042Z 35008KT 15/M04 A302 RMK A01 T01471044  RH  026%=      5-min Rain = 0
KJU1 120043Z 34012KT 15/M05 A302 RMK A01 T01471045  RH  026%=      5-min Rain = 0
KJU1 120044Z 36012G17KT 15/M05 A302 RMK A01 T01471047  RH  026%=      5-min Rain = 0
KJU1 120045Z 36010KT 15/M05 A302 RMK A01 T01471047  RH  026%=      5-min Rain = 0
KJU1 120046Z 00008KT 15/M05 A302 RMK A01 T01471047  RH  026%=      5-min Rain = 0
KJU1 120047Z 35011KT 15/M05 A302 RMK A01 T01471047  RH  026%=      5-min Rain = 0
KJU1 120048Z 01007KT 15/M05 A302 RMK A01 T01471047  RH  026%=      5-min Rain = 0
KJU1 120049Z 00007KT 15/M05 A302 RMK A01 T01461047  RH  026%=      5-min Rain = 0
KJU1 120050Z 35006KT 15/M05 A302 RMK A01 T01461047  RH  026%=      5-min Rain = 0
KJU1 120051Z 35009KT 15/M05 A302 RMK A01 T01461048  RH  026%=      5-min Rain = 0
KJU1 120052Z 35009KT 15/M05 A302 RMK A01 T01461048  RH  026%=      5-min Rain = 0
KJU1 120053Z 36008KT 15/M05 A302 RMK A01 T01461049  RH  026%=      5-min Rain = 0
KJU1 120054Z 36008KT 15/M05 A302 RMK A01 T01461049  RH  026%=      5-min Rain = 0
KJU1 120055Z 35010KT 15/M05 A302 RMK A01 T01461049  RH  026%=      5-min Rain = 0
KJU1 120056Z 00009KT 15/M05 A302 RMK A01 T01461050  RH  025%=      5-min Rain = 0
KJU1 120057Z 36012KT 15/M05 A3021 RMK A01 T01461050  RH  025%=      5-min Rain = 0
KJU1 120058Z 00008KT 15/M05 A3021 RMK A01 T01461051  RH  025%=      5-min Rain = 0
KJU1 120059Z 36009KT 15/M05 A3021 RMK A01 T01461050  RH  025%=      5-min Rain = 0
KJU1 120100Z 36009KT 15/M05 A3021 RMK A01 T01461049  RH  026%=      5-min Rain = 0
KJU1 120101Z 35008KT 15/M05 A3021 RMK A01 T01461050  RH  026%=      5-min Rain = 0
KJU1 120102Z 36008KT 15/M05 A3021 RMK A01 T01451050  RH  026%=      5-min Rain = 0
KJU1 120103Z 36009KT 15/M05 A3021 RMK A01 T01451049  RH  026%=      5-min Rain = 0
KJU1 120104Z 00008KT 15/M05 A3021 RMK A01 T01451049  RH  026%=      5-min Rain = 0
KJU1 120105Z 01007KT 15/M05 A3021 RMK A01 T01451049  RH  026%=      5-min Rain = 0
KJU1 120106Z 35008KT 15/M05 A3021 RMK A01 T01451048  RH  026%=      5-min Rain = 0
KJU1 120107Z 36007KT 15/M05 A3021 RMK A01 T01451048  RH  026%=      5-min Rain = 0
KJU1 120108Z 36008KT 15/M05 A3021 RMK A01 T01451048  RH  026%=      5-min Rain = 0
KJU1 120109Z 36009KT 14/M05 A3021 RMK A01 T01441048  RH  026%=      5-min Rain = 0
KJU1 120110Z 36007KT 14/M05 A3021 RMK A01 T01441048  RH  026%=      5-min Rain = 0
KJU1 120111Z 35010KT 14/M05 A3021 RMK A01 T01441048  RH  026%=      5-min Rain = 0
KJU1 120112Z 35008KT 15/M05 A3021 RMK A01 T01451047  RH  026%=      5-min Rain = 0
KJU1 120113Z 36007KT 14/M05 A3021 RMK A01 T01441047  RH  026%=      5-min Rain = 0
KJU1 120114Z 36008KT 14/M05 A3021 RMK A01 T01441046  RH  026%=      5-min Rain = 0
KJU1 120115Z 01006KT 14/M05 A3021 RMK A01 T01441046  RH  026%=      5-min Rain = 0
KJU1 120116Z 01007KT 14/M05 A3021 RMK A01 T01441046  RH  026%=      5-min Rain = 0
KJU1 120117Z 36006KT 14/M05 A3021 RMK A01 T01441046  RH  027%=      5-min Rain = 0
KJU1 120118Z 00006KT 14/M05 A3021 RMK A01 T01431046  RH  027%=      5-min Rain = 0
KJU1 120119Z 36009KT 14/M05 A3021 RMK A01 T01431046  RH  027%=      5-min Rain = 0
KJU1 120120Z 36008KT 14/M05 A3021 RMK A01 T01431047  RH  027%=      5-min Rain = 0
KJU1 120121Z 36008KT 14/M05 A3021 RMK A01 T01431047  RH  026%=      5-min Rain = 0
KJU1 120122Z 01008KT 14/M05 A3022 RMK A01 T01431047  RH  026%=      5-min Rain = 0
KJU1 120123Z 36007KT 14/M05 A3022 RMK A01 T01431047  RH  026%=      5-min Rain = 0
KJU1 120124Z 36010KT 14/M05 A3022 RMK A01 T01431047  RH  026%=      5-min Rain = 0
KJU1 120125Z 36009KT 14/M05 A3022 RMK A01 T01431048  RH  026%=      5-min Rain = 0
KJU1 120126Z 35006KT 14/M05 A3022 RMK A01 T01431048  RH  026%=      5-min Rain = 0
KJU1 120127Z 36008KT 14/M05 A3022 RMK A01 T01431048  RH  026%=      5-min Rain = 0
KJU1 120128Z 01007KT 14/M05 A3022 RMK A01 T01421048  RH  026%=      5-min Rain = 0
KJU1 120129Z 35008KT 14/M05 A3022 RMK A01 T01421048  RH  027%=      5-min Rain = 0
KJU1 120130Z 36006KT 14/M05 A3022 RMK A01 T01421048  RH  026%=      5-min Rain = 0
KJU1 120131Z 02007KT 14/M05 A3022 RMK A01 T01421048  RH  027%=      5-min Rain = 0
KJU1 120132Z 01005KT 14/M05 A3022 RMK A01 T01421048  RH  027%=      5-min Rain = 0
KJU1 120133Z 01007KT 14/M05 A3022 RMK A01 T01411048  RH  027%=      5-min Rain = 0
KJU1 120134Z 01006KT 14/M05 A3022 RMK A01 T01411048  RH  027%=      5-min Rain = 0
KJU1 120135Z 36005KT 14/M05 A3022 RMK A01 T01411048  RH  027%=      5-min Rain = 0
KJU1 120136Z 01006KT 14/M05 A3022 RMK A01 T01411047  RH  027%=      5-min Rain = 0
KJU1 120137Z 01008KT 14/M05 A3022 RMK A01 T01411049  RH  027%=      5-min Rain = 0
KJU1 120138Z 00008KT 14/M05 A3022 RMK A01 T01411050  RH  026%=      5-min Rain = 0
KJU1 120139Z 00008KT 14/M05 A3022 RMK A01 T01411051  RH  026%=      5-min Rain = 0
KJU1 120140Z 01006KT 14/M05 A3022 RMK A01 T01411052  RH  026%=      5-min Rain = 0
KJU1 120141Z 01006KT 14/M05 A3022 RMK A01 T01411052  RH  026%=      5-min Rain = 0
KJU1 120142Z 36007KT 14/M05 A3022 RMK A01 T01411052  RH  026%=      5-min Rain = 0
KJU1 120143Z 00005KT 14/M05 A3022 RMK A01 T01411052  RH  026%=      5-min Rain = 0
KJU1 120144Z 01007KT 14/M05 A3022 RMK A01 T01401052  RH  026%=      5-min Rain = 0
KJU1 120145Z 01007KT 14/M05 A3022 RMK A01 T01401052  RH  026%=      5-min Rain = 0
KJU1 120146Z 01007KT 14/M05 A3022 RMK A01 T01401054  RH  026%=      5-min Rain = 0
KJU1 120147Z 36007G12KT 14/M05 A3022 RMK A01 T01401054  RH  026%=      5-min Rain = 0
KJU1 120148Z 01007KT 14/M05 A3022 RMK A01 T01401054  RH  026%=      5-min Rain = 0
KJU1 120149Z 01006KT 14/M05 A3022 RMK A01 T01401054  RH  026%=      5-min Rain = 0
KJU1 120150Z 00005KT 14/M05 A3023 RMK A01 T01401054  RH  026%=      5-min Rain = 0
KJU1 120151Z 01006KT 14/M05 A3023 RMK A01 T01391053  RH  026%=      5-min Rain = 0
KJU1 120152Z 01006KT 14/M05 A3023 RMK A01 T01391053  RH  026%=      5-min Rain = 0
KJU1 120153Z 01007KT 14/M05 A3023 RMK A01 T01381054  RH  026%=      5-min Rain = 0
KJU1 120154Z 00006KT 14/M06 A3023 RMK A01 T01381055  RH  026%=      5-min Rain = 0
KJU1 120155Z 00005KT 14/M05 A3023 RMK A01 T01381054  RH  026%=      5-min Rain = 0
KJU1 120156Z 35007KT 14/M05 A3023 RMK A01 T01381054  RH  026%=      5-min Rain = 0
KJU1 120157Z 00005KT 14/M05 A3023 RMK A01 T01381054  RH  026%=      5-min Rain = 0
KJU1 120158Z 35005KT 14/M05 A3023 RMK A01 T01371053  RH  026%=      5-min Rain = 0
KJU1 120159Z 01005KT 14/M05 A3023 RMK A01 T01361052  RH  027%=      5-min Rain = 0
KJU1 120200Z 00005KT 14/M05 A3023 RMK A01 T01361053  RH  027%=      5-min Rain = 0
KJU1 120201Z 36004KT 14/M05 A3023 RMK A01 T01361053  RH  027%=      5-min Rain = 0
KJU1 120202Z 00005KT 14/M05 A3023 RMK A01 T01351052  RH  027%=      5-min Rain = 0
KJU1 120203Z 36005KT 14/M05 A3023 RMK A01 T01351052  RH  027%=      5-min Rain = 0
KJU1 120204Z 36005KT 14/M05 A3023 RMK A01 T01351052  RH  027%=      5-min Rain = 0
KJU1 120205Z 00005KT 13/M05 A3023 RMK A01 T01341052  RH  027%=      5-min Rain = 0
KJU1 120206Z 00005KT 13/M05 A3023 RMK A01 T01341051  RH  027%=      5-min Rain = 0
KJU1 120207Z 01005KT 13/M05 A3023 RMK A01 T01341051  RH  027%=      5-min Rain = 0
KJU1 120208Z 36006KT 13/M05 A3023 RMK A01 T01341051  RH  027%=      5-min Rain = 0
KJU1 120209Z 36006KT 13/M05 A3023 RMK A01 T01331051  RH  027%=      5-min Rain = 0
KJU1 120210Z 36005KT 13/M05 A3023 RMK A01 T01331052  RH  027%=      5-min Rain = 0
KJU1 120211Z 00005KT 13/M05 A3024 RMK A01 T01331051  RH  027%=      5-min Rain = 0
KJU1 120212Z 00006KT 13/M05 A3024 RMK A01 T01331050  RH  028%=      5-min Rain = 0
KJU1 120213Z 00006KT 13/M05 A3024 RMK A01 T01321051  RH  027%=      5-min Rain = 0
KJU1 120214Z 36006KT 13/M05 A3024 RMK A01 T01331051  RH  027%=      5-min Rain = 0
KJU1 120215Z 00006KT 13/M05 A3024 RMK A01 T01321051  RH  028%=      5-min Rain = 0
KJU1 120216Z 00006KT 13/M05 A3024 RMK A01 T01321050  RH  028%=      5-min Rain = 0
KJU1 120217Z 00006KT 13/M05 A3024 RMK A01 T01321051  RH  028%=      5-min Rain = 0
KJU1 120218Z 36007KT 13/M05 A3024 RMK A01 T01311051  RH  028%=      5-min Rain = 0
KJU1 120219Z 36006KT 13/M05 A3024 RMK A01 T01311052  RH  028%=      5-min Rain = 0
KJU1 120220Z 36007KT 13/M05 A3024 RMK A01 T01311052  RH  027%=      5-min Rain = 0
KJU1 120221Z 00005KT 13/M05 A3024 RMK A01 T01301052  RH  028%=      5-min Rain = 0
KJU1 120222Z 36007KT 13/M05 A3024 RMK A01 T01301052  RH  028%=      5-min Rain = 0
KJU1 120223Z 00005KT 13/M05 A3024 RMK A01 T01301052  RH  028%=      5-min Rain = 0
KJU1 120224Z 36006KT 13/M05 A3024 RMK A01 T01291052  RH  028%=      5-min Rain = 0
KJU1 120225Z 36006KT 13/M05 A3024 RMK A01 T01291053  RH  028%=      5-min Rain = 0
KJU1 120226Z 35008KT 13/M05 A3024 RMK A01 T01291053  RH  028%=      5-min Rain = 0
KJU1 120227Z 35007KT 13/M05 A3024 RMK A01 T01291054  RH  027%=      5-min Rain = 0
KJU1 120228Z 36008KT 13/M06 A3024 RMK A01 T01291055  RH  027%=      5-min Rain = 0
KJU1 120229Z 36006KT 13/M06 A3024 RMK A01 T01281055  RH  027%=      5-min Rain = 0
KJU1 120230Z 35007KT 13/M06 A3024 RMK A01 T01281056  RH  027%=      5-min Rain = 0
KJU1 120231Z 00007KT 13/M06 A3025 RMK A01 T01281057  RH  027%=      5-min Rain = 0
KJU1 120232Z 36007KT 13/M06 A3025 RMK A01 T01281058  RH  027%=      5-min Rain = 0
KJU1 120233Z 35007KT 13/M06 A3025 RMK A01 T01281058  RH  027%=      5-min Rain = 0
KJU1 120234Z 35007KT 13/M06 A3025 RMK A01 T01281058  RH  027%=      5-min Rain = 0
KJU1 120235Z 35009KT 13/M06 A3025 RMK A01 T01281059  RH  027%=      5-min Rain = 0
KJU1 120236Z 36007KT 13/M06 A3025 RMK A01 T01281060  RH  027%=      5-min Rain = 0
KJU1 120237Z 36007KT 13/M06 A3025 RMK A01 T01281060  RH  027%=      5-min Rain = 0
KJU1 120238Z 35007KT 13/M06 A3025 RMK A01 T01281059  RH  027%=      5-min Rain = 0
KJU1 120239Z 35006KT 13/M06 A3025 RMK A01 T01271060  RH  027%=      5-min Rain = 0
KJU1 120240Z 36006KT 13/M06 A3025 RMK A01 T01271060  RH  027%=      5-min Rain = 0
KJU1 120241Z 36007KT 13/M06 A3025 RMK A01 T01271060  RH  027%=      5-min Rain = 0
KJU1 120242Z 35007KT 13/M06 A3025 RMK A01 T01261061  RH  027%=      5-min Rain = 0
KJU1 120243Z 35006KT 13/M06 A3025 RMK A01 T01271061  RH  027%=      5-min Rain = 0
KJU1 120244Z 36006KT 13/M06 A3025 RMK A01 T01271061  RH  027%=      5-min Rain = 0
KJU1 120245Z 35006KT 13/M06 A3025 RMK A01 T01261060  RH  027%=      5-min Rain = 0
KJU1 120246Z 36006KT 13/M06 A3025 RMK A01 T01261061  RH  027%=      5-min Rain = 0
KJU1 120247Z 36006KT 13/M06 A3025 RMK A01 T01261061  RH  027%=      5-min Rain = 0
KJU1 120248Z 36006KT 13/M06 A3025 RMK A01 T01251060  RH  027%=      5-min Rain = 0
KJU1 120249Z 00005KT 13/M06 A3025 RMK A01 T01251060  RH  027%=      5-min Rain = 0
KJU1 120250Z 00005KT 13/M06 A3025 RMK A01 T01251060  RH  027%=      5-min Rain = 0
KJU1 120251Z 00005KT 12/M06 A3025 RMK A01 T01241060  RH  027%=      5-min Rain = 0
KJU1 120252Z 00005KT 12/M06 A3025 RMK A01 T01241060  RH  027%=      5-min Rain = 0
KJU1 120253Z 00005KT 12/M06 A3025 RMK A01 T01241060  RH  027%=      5-min Rain = 0
KJU1 120254Z 36005KT 12/M06 A3026 RMK A01 T01231059  RH  027%=      5-min Rain = 0
KJU1 120255Z 36005KT 12/M06 A3026 RMK A01 T01231060  RH  027%=      5-min Rain = 0
KJU1 120256Z 36005KT 12/M06 A3026 RMK A01 T01231060  RH  027%=      5-min Rain = 0
KJU1 120257Z 01006KT 12/M06 A3026 RMK A01 T01231060  RH  027%=      5-min Rain = 0
KJU1 120258Z 00005KT 12/M06 A3026 RMK A01 T01231060  RH  027%=      5-min Rain = 0
KJU1 120259Z 00005KT 12/M06 A3026 RMK A01 T01231060  RH  027%=      5-min Rain = 0
KJU1 120300Z 01005KT 12/M06 A3026 RMK A01 T01221059  RH  028%=      5-min Rain = 0
KJU1 120301Z 00004KT 12/M06 A3026 RMK A01 T01221059  RH  028%=      5-min Rain = 0
KJU1 120302Z 01005KT 12/M06 A3026 RMK A01 T01221058  RH  028%=      5-min Rain = 0
KJU1 120303Z 01005KT 12/M06 A3026 RMK A01 T01221058  RH  028%=      5-min Rain = 0
KJU1 120304Z 01005KT 12/M06 A3026 RMK A01 T01211058  RH  028%=      5-min Rain = 0
KJU1 120305Z 36004KT 12/M06 A3026 RMK A01 T01201058  RH  028%=      5-min Rain = 0
KJU1 120306Z 01004KT 12/M06 A3026 RMK A01 T01201058  RH  028%=      5-min Rain = 0
KJU1 120307Z 01004KT 12/M06 A3026 RMK A01 T01201057  RH  028%=      5-min Rain = 0
KJU1 120308Z 01004KT 12/M06 A3026 RMK A01 T01201057  RH  029%=      5-min Rain = 0
KJU1 120309Z 36005KT 12/M06 A3026 RMK A01 T01191057  RH  029%=      5-min Rain = 0
KJU1 120310Z 00005KT 12/M06 A3027 RMK A01 T01191057  RH  029%=      5-min Rain = 0
KJU1 120311Z 00005KT 12/M06 A3027 RMK A01 T01191057  RH  029%=      5-min Rain = 0
KJU1 120312Z 36005KT 12/M06 A3027 RMK A01 T01191057  RH  029%=      5-min Rain = 0
KJU1 120313Z 36005KT 12/M06 A3027 RMK A01 T01191057  RH  029%=      5-min Rain = 0
KJU1 120314Z 36004KT 12/M06 A3027 RMK A01 T01191056  RH  029%=      5-min Rain = 0
KJU1 120315Z 35006KT 12/M06 A3027 RMK A01 T01181057  RH  029%=      5-min Rain = 0
KJU1 120316Z 36006KT 12/M06 A3027 RMK A01 T01191057  RH  029%=      5-min Rain = 0
KJU1 120317Z 36006KT 12/M06 A3027 RMK A01 T01191057  RH  029%=      5-min Rain = 0
KJU1 120318Z 36006KT 12/M06 A3027 RMK A01 T01181057  RH  029%=      5-min Rain = 0
KJU1 120319Z 00004KT 12/M06 A3027 RMK A01 T01181058  RH  029%=      5-min Rain = 0
KJU1 120320Z 36006KT 12/M06 A3027 RMK A01 T01181057  RH  029%=      5-min Rain = 0
KJU1 120321Z 00005KT 12/M06 A3027 RMK A01 T01181058  RH  029%=      5-min Rain = 0
KJU1 120322Z 36006KT 12/M06 A3028 RMK A01 T01181058  RH  029%=      5-min Rain = 0
KJU1 120323Z 36005KT 12/M06 A3028 RMK A01 T01181058  RH  029%=      5-min Rain = 0
KJU1 120324Z 36006KT 12/M06 A3028 RMK A01 T01181059  RH  029%=      5-min Rain = 0
KJU1 120325Z 36004KT 12/M06 A3028 RMK A01 T01181059  RH  029%=      5-min Rain = 0
KJU1 120326Z 36006KT 12/M06 A3028 RMK A01 T01171058  RH  029%=      5-min Rain = 0
KJU1 120327Z 00006KT 12/M06 A3028 RMK A01 T01171058  RH  029%=      5-min Rain = 0
KJU1 120328Z 00005KT 12/M06 A3028 RMK A01 T01171058  RH  029%=      5-min Rain = 0
KJU1 120329Z 36005KT 12/M06 A3028 RMK A01 T01161058  RH  029%=      5-min Rain = 0
KJU1 120330Z 36006KT 12/M06 A3028 RMK A01 T01161059  RH  029%=      5-min Rain = 0
KJU1 120331Z 36005KT 12/M06 A3028 RMK A01 T01161058  RH  029%=      5-min Rain = 0
KJU1 120332Z 00005KT 12/M06 A3028 RMK A01 T01161058  RH  029%=      5-min Rain = 0
KJU1 120333Z 35005KT 12/M06 A3028 RMK A01 T01151058  RH  029%=      5-min Rain = 0
KJU1 120334Z 00005KT 12/M06 A3028 RMK A01 T01151058  RH  029%=      5-min Rain = 0
KJU1 120335Z 35006KT 12/M06 A3028 RMK A01 T01151058  RH  029%=      5-min Rain = 0
KJU1 120336Z 35006KT 12/M06 A3028 RMK A01 T01151059  RH  029%=      5-min Rain = 0
KJU1 120337Z 36005KT 12/M06 A3029 RMK A01 T01151060  RH  029%=      5-min Rain = 0
KJU1 120338Z 36005KT 12/M06 A3029 RMK A01 T01151061  RH  029%=      5-min Rain = 0
KJU1 120339Z 36006KT 12/M06 A3029 RMK A01 T01151061  RH  029%=      5-min Rain = 0
KJU1 120340Z 36005KT 12/M06 A3029 RMK A01 T01161061  RH  028%=      5-min Rain = 0
KJU1 120341Z 35005KT 12/M06 A3029 RMK A01 T01151062  RH  028%=      5-min Rain = 0
KJU1 120342Z 00005KT 12/M06 A3029 RMK A01 T01161061  RH  028%=      5-min Rain = 0
KJU1 120343Z 36005KT 12/M06 A3029 RMK A01 T01161062  RH  028%=      5-min Rain = 0
KJU1 120344Z 00006KT 12/M06 A3029 RMK A01 T01161062  RH  028%=      5-min Rain = 0
KJU1 120345Z 36006KT 12/M06 A3029 RMK A01 T01161064  RH  028%=      5-min Rain = 0
KJU1 120346Z 35006KT 12/M06 A3029 RMK A01 T01161064  RH  028%=      5-min Rain = 0
KJU1 120347Z 35006KT 12/M06 A3029 RMK A01 T01161064  RH  028%=      5-min Rain = 0
KJU1 120348Z 36006KT 12/M07 A3029 RMK A01 T01151065  RH  028%=      5-min Rain = 0
KJU1 120349Z 36008KT 12/M07 A3029 RMK A01 T01161066  RH  028%=      5-min Rain = 0
KJU1 120350Z 36007KT 12/M07 A3029 RMK A01 T01151067  RH  027%=      5-min Rain = 0
KJU1 120351Z 35007KT 12/M07 A3029 RMK A01 T01161066  RH  027%=      5-min Rain = 0
KJU1 120352Z 36006KT 12/M07 A3029 RMK A01 T01161066  RH  027%=      5-min Rain = 0
KJU1 120353Z 36007KT 12/M07 A3029 RMK A01 T01151066  RH  027%=      5-min Rain = 0
KJU1 120354Z 36006KT 12/M07 A3029 RMK A01 T01151066  RH  027%=      5-min Rain = 0
KJU1 120355Z 36005KT 12/M07 A3029 RMK A01 T01151066  RH  028%=      5-min Rain = 0
KJU1 120356Z 36005KT 11/M07 A3029 RMK A01 T01141067  RH  028%=      5-min Rain = 0
KJU1 120357Z 36007KT 11/M07 A3029 RMK A01 T01141067  RH  028%=      5-min Rain = 0
KJU1 120358Z 36006KT 11/M07 A3029 RMK A01 T01141067  RH  028%=      5-min Rain = 0
KJU1 120359Z 00005KT 11/M07 A3029 RMK A01 T01141067  RH  028%=      5-min Rain = 0
KJU1 120400Z 36006KT 11/M07 A3029 RMK A01 T01131067  RH  028%=      5-min Rain = 0
KJU1 120401Z 36006KT 11/M07 A3029 RMK A01 T01131067  RH  028%=      5-min Rain = 0
KJU1 120402Z 36005KT 11/M07 A3029 RMK A01 T01131068  RH  028%=      5-min Rain = 0
KJU1 120403Z 35005KT 11/M07 A3029 RMK A01 T01131067  RH  028%=      5-min Rain = 0
KJU1 120404Z 00005KT 11/M07 A3029 RMK A01 T01121068  RH  028%=      5-min Rain = 0
KJU1 120405Z 00005KT 11/M07 A3029 RMK A01 T01121068  RH  028%=      5-min Rain = 0
KJU1 120406Z 36005KT 11/M07 A3029 RMK A01 T01121068  RH  028%=      5-min Rain = 0
KJU1 120407Z 01006KT 11/M07 A3029 RMK A01 T01111068  RH  028%=      5-min Rain = 0
KJU1 120408Z 36005KT 11/M07 A3029 RMK A01 T01111068  RH  028%=      5-min Rain = 0
KJU1 120409Z 00005KT 11/M07 A3029 RMK A01 T01111068  RH  028%=      5-min Rain = 0
KJU1 120410Z 01004KT 11/M07 A3029 RMK A01 T01101068  RH  028%=      5-min Rain = 0
KJU1 120411Z 01006KT 11/M07 A3028 RMK A01 T01101068  RH  028%=      5-min Rain = 0
KJU1 120412Z 01005KT 11/M07 A3028 RMK A01 T01101068  RH  028%=      5-min Rain = 0
KJU1 120413Z 01004KT 11/M07 A3028 RMK A01 T01101068  RH  028%=      5-min Rain = 0
KJU1 120414Z 01004KT 11/M07 A3028 RMK A01 T01091068  RH  028%=      5-min Rain = 0
KJU1 120415Z 36004KT 11/M07 A3028 RMK A01 T01081067  RH  029%=      5-min Rain = 0
KJU1 120416Z 00004KT 11/M07 A3028 RMK A01 T01071067  RH  029%=      5-min Rain = 0
KJU1 120417Z 01004KT 11/M07 A3028 RMK A01 T01071067  RH  029%=      5-min Rain = 0
KJU1 120418Z 01004KT 11/M07 A3028 RMK A01 T01071067  RH  029%=      5-min Rain = 0
KJU1 120419Z 01004KT 11/M07 A3029 RMK A01 T01071067  RH  029%=      5-min Rain = 0
KJU1 120420Z 01004KT 11/M07 A3029 RMK A01 T01071067  RH  029%=      5-min Rain = 0
KJU1 120421Z 00005KT 11/M07 A3029 RMK A01 T01061067  RH  029%=      5-min Rain = 0
KJU1 120422Z 00005KT 11/M07 A3028 RMK A01 T01061067  RH  029%=      5-min Rain = 0
KJU1 120423Z 00005KT 11/M07 A3028 RMK A01 T01051067  RH  029%=      5-min Rain = 0
KJU1 120424Z 00005KT 11/M07 A3028 RMK A01 T01061067  RH  029%=      5-min Rain = 0
KJU1 120425Z 01004KT 11/M07 A3028 RMK A01 T01051067  RH  029%=      5-min Rain = 0
KJU1 120426Z 01005KT 11/M07 A3028 RMK A01 T01051067  RH  029%=      5-min Rain = 0
KJU1 120427Z 00004KT 10/M07 A3028 RMK A01 T01041067  RH  029%=      5-min Rain = 0
KJU1 120428Z 00004KT 11/M07 A3028 RMK A01 T01051067  RH  029%=      5-min Rain = 0
KJU1 120429Z 00003KT 10/M07 A3028 RMK A01 T01041067  RH  029%=      5-min Rain = 0
KJU1 120430Z 00003KT 10/M07 A3028 RMK A01 T01041066  RH  030%=      5-min Rain = 0
KJU1 120431Z 00004KT 10/M07 A3028 RMK A01 T01031066  RH  030%=      5-min Rain = 0
KJU1 120432Z 00004KT 10/M07 A3028 RMK A01 T01021067  RH  030%=      5-min Rain = 0
KJU1 120433Z 00003KT 10/M07 A3028 RMK A01 T01021066  RH  030%=      5-min Rain = 0
KJU1 120434Z 00004KT 10/M07 A3028 RMK A01 T01021066  RH  030%=      5-min Rain = 0
KJU1 120435Z 00004KT 10/M07 A3028 RMK A01 T01021067  RH  030%=      5-min Rain = 0
KJU1 120436Z 00004KT 10/M07 A3028 RMK A01 T01021067  RH  030%=      5-min Rain = 0
KJU1 120437Z 36004KT 10/M07 A3028 RMK A01 T01021067  RH  030%=      5-min Rain = 0
KJU1 120438Z 01004KT 10/M07 A3028 RMK A01 T01021067  RH  030%=      5-min Rain = 0
KJU1 120439Z 01004KT 10/M07 A3028 RMK A01 T01021066  RH  030%=      5-min Rain = 0
KJU1 120440Z 01004KT 10/M07 A3028 RMK A01 T01011067  RH  030%=      5-min Rain = 0
KJU1 120441Z 01005KT 10/M07 A3028 RMK A01 T01011067  RH  030%=      5-min Rain = 0
KJU1 120442Z 01005KT 10/M07 A3028 RMK A01 T01001068  RH  030%=      5-min Rain = 0
KJU1 120443Z 01005KT 10/M07 A3028 RMK A01 T01001067  RH  030%=      5-min Rain = 0
KJU1 120444Z 02004KT 10/M07 A3028 RMK A01 T01001066  RH  030%=      5-min Rain = 0
KJU1 120445Z 01005KT 10/M07 A3028 RMK A01 T00991066  RH  031%=      5-min Rain = 0
KJU1 120446Z 01005KT 10/M07 A3028 RMK A01 T00981066  RH  031%=      5-min Rain = 0
KJU1 120447Z 01004KT 10/M07 A3028 RMK A01 T00981066  RH  031%=      5-min Rain = 0
KJU1 120448Z 01004KT 10/M07 A3028 RMK A01 T00981066  RH  031%=      5-min Rain = 0
KJU1 120449Z 01005KT 10/M07 A3028 RMK A01 T00981067  RH  031%=      5-min Rain = 0
KJU1 120450Z 01004KT 10/M07 A3028 RMK A01 T00981067  RH  031%=      5-min Rain = 0
KJU1 120451Z 01005KT 10/M07 A3028 RMK A01 T00981068  RH  031%=      5-min Rain = 0
KJU1 120452Z 01004KT 10/M07 A3028 RMK A01 T00981069  RH  030%=      5-min Rain = 0
KJU1 120453Z 01004KT 10/M07 A3028 RMK A01 T00981069  RH  030%=      5-min Rain = 0
KJU1 120454Z 01004KT 10/M07 A3028 RMK A01 T00981069  RH  030%=      5-min Rain = 0
KJU1 120455Z 01004KT 10/M07 A3028 RMK A01 T00991069  RH  030%=      5-min Rain = 0
KJU1 120456Z 01004KT 10/M07 A3028 RMK A01 T00981070  RH  030%=      5-min Rain = 0
KJU1 120457Z 00004KT 10/M07 A3028 RMK A01 T00991070  RH  030%=      5-min Rain = 0
KJU1 120458Z 01004KT 10/M07 A3028 RMK A01 T00981069  RH  030%=      5-min Rain = 0
KJU1 120459Z 01005KT 10/M07 A3028 RMK A01 T00981069  RH  030%=      5-min Rain = 0

Page generated in 0.1577 seconds.